M I D A S
Marine Information and Data Acquisition System
Tripno 849 of the Zeeleeuw from 2005-02-21 08:20:01 to 2005-02-22 10:23:57
Back to CruiseResearch ActivitiesStationsMapUnderway DataData graphs

EquipmentUnitsComment
TimeDGPSUTC
LatitudeDGPSDM.mWGS84
LongitudeDGPSDM.mWGS84
TemperatureSBE03/SBE38deg celciusITS90
ConductivitySBE21S/mITS90
SalinitySBE21 Practical Salinity Units
ChlorophylAChelsea fluorimeterg/lCalibrated in Aceton
Missing or incorrect values are displayed as -999
Sea surface data collected by the RV Zeeleeuw from 2005-02-21 08:19:41 to 2005-02-22 10:35:33
                                                                                    Next 1000 lines
Time Latitude Longitude Temperature Conductivity Salinity ChlorophylA
2005-02-21 08:19:50 51°13.597 2°56.096 7.0762 3.832373 28.984697 -0.781249
2005-02-21 08:19:54 51°13.598 2°56.093 6.6983 3.039298 22.44947 -0.848668
2005-02-21 08:20:01 51°13.6 2°56.087 6.5963 3.630673 27.322341 0.297452
2005-02-21 08:20:06 51°13.601 2°56.081 6.3088 3.525756 27.743714 0.836802
2005-02-21 08:20:11 51°13.603 2°56.075 5.974 3.525756 27.743714 0.836802
2005-02-21 08:20:16 51°13.605 2°56.069 5.6612 3.442665 28.707959 1.173896
2005-02-21 08:20:21 51°13.607 2°56.064 5.5315 2.708599 23.552474 2.286306
2005-02-21 08:20:26 51°13.61 2°56.057 5.3863 1.785924 15.557214 3.095332
2005-02-21 08:20:30 51°13.612 2°56.051 5.2926 1.382749 12.118444 4.174033
2005-02-21 08:20:36 51°13.615 2°56.042 5.2423 1.251879 11.098252 4.308871
2005-02-21 08:20:41 51°13.617 2°56.035 5.1993 1.287605 11.598985 4.544836
2005-02-21 08:20:46 51°13.62 2°56.027 5.1714 1.287605 11.598985 4.544836
2005-02-21 08:20:51 51°13.623 2°56.019 5.0801 1.415564 13.023946 4.679674
2005-02-21 08:20:56 51°13.626 2°56.01 5.0421 1.514223 14.146099 4.713383
2005-02-21 08:21:01 51°13.629 2°56.002 4.9909 1.596238 15.086644 4.679674
2005-02-21 08:21:05 51°13.631 2°55.995 4.8974 1.658866 15.806193 4.477418
2005-02-21 08:21:11 51°13.634 2°55.983 4.9164 1.658866 15.806193 4.477418
2005-02-21 08:21:16 51°13.637 2°55.973 4.8236 1.673345 16.009564 4.443708
2005-02-21 08:21:21 51°13.64 2°55.963 4.83 1.685936 16.180948 4.477418
2005-02-21 08:21:26 51°13.643 2°55.953 4.7861 1.696954 16.341486 4.241452
2005-02-21 08:21:31 51°13.647 2°55.942 4.7639 1.690554 16.319263 4.241452
2005-02-21 08:21:36 51°13.65 2°55.932 4.7495 1.681321 16.256578 4.140324
2005-02-21 08:21:41 51°13.654 2°55.922 4.7279 1.681321 16.256578 4.140324
2005-02-21 08:21:45 51°13.657 2°55.913 4.7024 1.65121 15.964904 4.174033
2005-02-21 08:21:51 51°13.662 2°55.901 4.6732 1.634949 15.830048 4.106614
2005-02-21 08:21:56 51°13.666 2°55.889 4.6534 1.617221 15.673151 4.140324
2005-02-21 08:22:01 51°13.671 2°55.878 4.6312 1.609144 15.605717 3.938067
2005-02-21 08:22:06 51°13.675 2°55.868 4.6432 1.590158 15.423245 3.971777
2005-02-21 08:22:10 51°13.679 2°55.859 4.6408 1.590158 15.423245 3.971777
2005-02-21 08:22:16 51°13.684 2°55.846 4.634 1.579565 15.329417 3.904358
2005-02-21 08:22:21 51°13.689 2°55.836 4.6433 1.601802 15.574541 3.971777
2005-02-21 08:22:26 51°13.693 2°55.825 4.6187 1.62981 15.891048 3.80323
2005-02-21 08:22:30 51°13.697 2°55.817 4.6197 1.655828 16.180079 3.904358
2005-02-21 08:22:36 51°13.702 2°55.806 4.6192 1.697377 16.632385 3.80323
2005-02-21 08:22:41 51°13.707 2°55.795 4.6252 1.697377 16.632385 3.80323
2005-02-21 08:22:46 51°13.711 2°55.786 4.6084 1.720777 16.886761 3.836939
2005-02-21 08:22:50 51°13.713 2°55.779 4.6021 1.753309 17.240218 3.668392
2005-02-21 08:22:55 51°13.717 2°55.77 4.5908 1.790567 17.644838 3.702101
2005-02-21 08:23:01 51°13.721 2°55.76 4.5748 1.821637 17.98361 3.668392
2005-02-21 08:23:06 51°13.724 2°55.752 4.5664 1.834864 18.131581 3.668392
2005-02-21 08:23:10 51°13.727 2°55.744 4.5595 1.834864 18.131581 3.668392
2005-02-21 08:23:15 51°13.729 2°55.737 4.5617 1.852185 18.317583 3.634683
2005-02-21 08:23:21 51°13.732 2°55.73 4.5542 1.867092 18.483603 3.600973
2005-02-21 08:23:25 51°13.733 2°55.725 4.5476 1.838328 18.181831 3.668392
2005-02-21 08:23:31 51°13.735 2°55.72 4.553 1.8314 18.113929 3.634683
2005-02-21 08:23:35 51°13.736 2°55.718 4.5418 1.800329 17.787608 3.634683
2005-02-21 08:23:41 51°13.737 2°55.716 4.5342 1.800329 17.787608 3.634683
2005-02-21 08:23:45 51°13.738 2°55.715 4.5281 1.786055 17.639289 3.668392
2005-02-21 08:23:51 51°13.739 2°55.716 4.5274 1.740506 17.15766 3.76952
2005-02-21 08:23:55 51°13.74 2°55.717 4.5218 1.730642 17.055981 3.80323
2005-02-21 08:24:01 51°13.741 2°55.719 4.5177 1.713117 16.87271 3.80323
2005-02-21 08:24:05 51°13.742 2°55.721 4.5214 1.703149 16.767313 3.80323
2005-02-21 08:24:10 51°13.744 2°55.723 4.5141 1.703149 16.767313 3.80323
2005-02-21 08:24:16 51°13.746 2°55.725 4.5203 1.691921 16.652472 3.904358
2005-02-21 08:24:21 51°13.747 2°55.726 4.5181 1.651213 16.219599 3.938067
2005-02-21 08:24:25 51°13.748 2°55.726 4.5117 1.667789 16.398802 3.904358
2005-02-21 08:24:30 51°13.749 2°55.725 4.5109 1.56719 15.332109 3.904358
2005-02-21 08:24:35 51°13.75 2°55.723 4.517 1.134803 10.81162 3.904358
2005-02-21 08:24:41 51°13.75 2°55.721 4.5076 1.134803 10.81162 3.904358
2005-02-21 08:24:45 51°13.749 2°55.719 4.5106 1.019033 9.627031 4.039195
2005-02-21 08:24:51 51°13.748 2°55.716 4.5102 1.008255 9.518573 3.938067
2005-02-21 08:24:56 51°13.747 2°55.713 4.5074 1.586699 15.545618 4.005486
2005-02-21 08:25:01 51°13.745 2°55.709 4.5016 1.538769 15.03933 3.971777
2005-02-21 08:25:06 51°13.743 2°55.705 4.5034 1.525345 14.897023 3.938067
2005-02-21 08:25:11 51°13.741 2°55.703 4.5012 1.525345 14.897023 3.938067
2005-02-21 08:25:16 51°13.74 2°55.7 4.5 1.543383 15.08868 4.005486
2005-02-21 08:25:21 51°13.739 2°55.698 4.4963 1.535622 15.008356 3.971777
2005-02-21 08:25:26 51°13.739 2°55.697 4.4948 1.549151 15.153512 4.005486
2005-02-21 08:25:30 51°13.74 2°55.696 4.5002 1.261633 12.133145 4.005486
2005-02-21 08:25:34 51°13.742 2°55.695 4.4992 1.063303 10.087126 3.971777
2005-02-21 08:25:41 51°13.745 2°55.694 4.4789 1.063303 10.087126 3.971777
2005-02-21 08:25:45 51°13.748 2°55.693 4.4564 1.584182 15.52956 4.005486
2005-02-21 08:25:50 51°13.753 2°55.69 4.4462 1.728123 17.070599 3.971777
2005-02-21 08:25:56 51°13.758 2°55.687 4.4294 1.819329 18.05465 3.971777
2005-02-21 08:26:01 51°13.763 2°55.684 4.4182 1.847567 18.362933 3.938067
2005-02-21 08:26:05 51°13.768 2°55.68 4.4267 1.272947 12.256095 4.005486
2005-02-21 08:26:11 51°13.775 2°55.676 4.4154 1.272947 12.256095 4.005486
2005-02-21 08:26:16 51°13.781 2°55.671 4.4307 1.271585 12.244842 4.072905
2005-02-21 08:26:21 51°13.788 2°55.666 4.4226 1.383289 13.420784 4.106614
2005-02-21 08:26:26 51°13.796 2°55.661 4.4293 1.577154 15.48028 4.275161
2005-02-21 08:26:31 51°13.804 2°55.656 4.4297 1.54223 15.114576 4.34258
2005-02-21 08:26:36 51°13.813 2°55.649 4.4323 1.480781 14.46854 4.409999
2005-02-21 08:26:41 51°13.821 2°55.644 4.4496 1.480781 14.46854 4.409999
2005-02-21 08:26:45 51°13.829 2°55.639 4.4447 1.512448 14.807598 4.409999
2005-02-21 08:26:50 51°13.838 2°55.633 4.4517 1.482249 14.488341 4.477418
2005-02-21 08:26:55 51°13.847 2°55.626 4.4411 1.506261 14.742687 4.477418
2005-02-21 08:27:01 51°13.858 2°55.618 4.4459 1.507414 14.753754 4.443708
2005-02-21 08:27:05 51°13.863 2°55.614 4.4476 1.513916 14.822007 4.477418
2005-02-21 08:27:10 51°13.877 2°55.605 4.4429 1.513916 14.822007 4.477418
2005-02-21 08:27:16 51°13.888 2°55.597 4.4476 1.553871 15.245745 4.308871
2005-02-21 08:27:21 51°13.898 2°55.589 4.445 1.524297 14.928733 4.308871
2005-02-21 08:27:25 51°13.906 2°55.583 4.4335 1.517166 14.850998 4.409999
2005-02-21 08:27:30 51°13.917 2°55.574 4.4381 1.125067 10.746322 4.275161
2005-02-21 08:27:35 51°13.927 2°55.567 4.4398 1.506785 14.74236 4.207742
2005-02-21 08:27:41 51°13.939 2°55.557 4.4431 1.506785 14.74236 4.207742
2005-02-21 08:27:45 51°13.949 2°55.55 4.4479 1.019033 9.658345 4.241452
2005-02-21 08:27:50 51°13.959 2°55.542 4.4501 1.495775 14.62438 4.174033
2005-02-21 08:27:55 51°13.97 2°55.534 4.4385 1.417669 13.801637 4.207742
2005-02-21 08:28:01 51°13.982 2°55.525 4.442 1.458344 14.23212 4.241452
2005-02-21 08:28:05 51°13.99 2°55.519 4.4414 1.465369 14.307222 4.241452
2005-02-21 08:28:11 51°14.004 2°55.509 4.4412 1.491162 14.580511 4.241452
2005-02-21 08:28:15 51°14.012 2°55.502 4.4454 1.491162 14.580511 4.241452
2005-02-21 08:28:21 51°14.025 2°55.493 4.4429 1.480991 14.471919 4.207742
2005-02-21 08:28:25 51°14.035 2°55.485 4.4481 1.569708 15.413663 4.072905
2005-02-21 08:28:31 51°14.048 2°55.476 4.4473 1.592363 15.6566 4.207742
2005-02-21 08:28:35 51°14.058 2°55.468 4.4474 1.625196 16.008799 4.241452
2005-02-21 08:28:41 51°14.071 2°55.458 4.4472 1.625196 16.008799 4.241452
2005-02-21 08:28:45 51°14.082 2°55.45 4.4423 1.648066 16.254128 4.207742
2005-02-21 08:28:50 51°14.094 2°55.441 4.4399 1.66181 16.400602 4.140324
2005-02-21 08:28:55 51°14.105 2°55.433 4.4551 1.656564 16.343914 4.174033
2005-02-21 08:29:01 51°14.119 2°55.421 4.4515 1.644604 16.216167 4.174033
2005-02-21 08:29:05 51°14.13 2°55.412 4.4779 1.634638 16.110286 4.039195
2005-02-21 08:29:11 51°14.144 2°55.401 4.4696 1.634638 16.110286 4.039195
2005-02-21 08:29:16 51°14.155 2°55.39 4.4705 1.624252 15.998697 3.971777
2005-02-21 08:29:21 51°14.167 2°55.378 4.4668 1.620581 15.959842 3.904358
2005-02-21 08:29:25 51°14.178 2°55.366 4.4648 1.625406 16.012324 3.836939
2005-02-21 08:29:30 51°14.19 2°55.353 4.4615 1.637155 16.136817 3.80323
2005-02-21 08:29:35 51°14.202 2°55.339 4.4682 1.645443 16.22127 3.80323
2005-02-21 08:29:41 51°14.214 2°55.323 4.464 1.645443 16.22127 3.80323
2005-02-21 08:29:45 51°14.225 2°55.311 4.4583 1.652157 16.289301 3.76952
2005-02-21 08:29:50 51°14.236 2°55.296 4.4711 1.655305 16.322155 3.735811
2005-02-21 08:29:55 51°14.246 2°55.281 4.4709 1.651633 16.283248 3.702101
2005-02-21 08:30:01 51°14.259 2°55.262 4.4789 1.63705 16.128389 3.634683
2005-02-21 08:30:06 51°14.269 2°55.245 4.4839 1.618378 15.929064 3.668392
2005-02-21 08:30:10 51°14.278 2°55.229 4.484 1.593412 15.661958 3.600973
2005-02-21 08:30:15 51°14.288 2°55.212 4.4852 1.593412 15.661958 3.600973
2005-02-21 08:30:21 51°14.299 2°55.19 4.4932 1.582399 15.54652 3.600973
2005-02-21 08:30:25 51°14.308 2°55.172 4.4922 1.602014 15.754627 3.634683
2005-02-21 08:30:31 51°14.319 2°55.149 4.4862 1.64303 16.191545 3.600973
2005-02-21 08:30:35 51°14.327 2°55.133 4.498 1.686361 16.653038 3.533554
2005-02-21 08:30:41 51°14.339 2°55.108 4.4937 1.686361 16.653038 3.533554
2005-02-21 08:30:45 51°14.346 2°55.092 4.5125 1.727809 17.095374 3.499845
2005-02-21 08:30:51 51°14.358 2°55.067 4.4898 1.750267 17.337208 3.432426
2005-02-21 08:30:55 51°14.366 2°55.05 4.4913 1.754989 17.385792 3.398717
2005-02-21 08:31:01 51°14.378 2°55.025 4.4966 1.756144 17.396383 3.466136
2005-02-21 08:31:05 51°14.388 2°55.008 4.5045 1.759082 17.428519 3.365007
2005-02-21 08:31:10 51°14.4 2°54.99 4.4938 1.762231 17.461068 3.398717
2005-02-21 08:31:15 51°14.413 2°54.975 4.4995 1.762231 17.461068 3.398717
2005-02-21 08:31:21 51°14.43 2°54.958 4.5126 1.772831 17.572578 3.398717
2005-02-21 08:31:25 51°14.443 2°54.947 4.5172 1.805053 17.921901 3.331298
2005-02-21 08:31:30 51°14.459 2°54.935 4.5157 1.86048 18.522443 3.297589
2005-02-21 08:31:35 51°14.475 2°54.923 4.5104 1.9303 19.279636 3.19646
2005-02-21 08:31:41 51°14.493 2°54.909 4.5141 2.002131 20.061777 3.061623
2005-02-21 08:31:46 51°14.509 2°54.899 4.5202 2.002131 20.061777 3.061623
2005-02-21 08:31:50 51°14.524 2°54.89 4.5174 2.085006 20.968847 2.960494
2005-02-21 08:31:55 51°14.541 2°54.881 4.515 2.165799 21.855905 2.859366
2005-02-21 08:32:01 51°14.56 2°54.872 4.5181 2.246083 22.740496 2.690819
2005-02-21 08:32:05 51°14.576 2°54.864 4.5098 2.328802 23.657673 2.454853
2005-02-21 08:32:10 51°14.592 2°54.857 4.5114 2.328802 23.657673 2.454853
2005-02-21 08:32:15 51°14.609 2°54.848 4.5063 2.409855 24.562798 2.387435
2005-02-21 08:32:21 51°14.63 2°54.839 4.5081 2.477464 25.314971 2.218888
2005-02-21 08:32:25 51°14.645 2°54.832 4.5068 2.536564 25.977274 2.117759
2005-02-21 08:32:30 51°14.664 2°54.823 4.499 2.59441 26.629496 1.949212
2005-02-21 08:32:35 51°14.68 2°54.816 4.5043 2.629542 27.026131 1.814375
2005-02-21 08:32:41 51°14.701 2°54.806 4.5055 2.629542 27.026131 1.814375
2005-02-21 08:32:45 51°14.715 2°54.8 4.5042 2.670883 27.495966 1.746956
2005-02-21 08:32:51 51°14.737 2°54.789 4.5046 2.699393 27.820533 1.679537
2005-02-21 08:32:55 51°14.75 2°54.782 4.5071 2.719908 28.054815 1.645828
2005-02-21 08:33:00 51°14.77 2°54.773 4.507 2.739688 28.282505 1.578409
2005-02-21 08:33:05 51°14.787 2°54.765 4.5165 2.753576 28.442684 1.578409
2005-02-21 08:33:10 51°14.805 2°54.757 4.5186 2.763046 28.551943 1.5447
2005-02-21 08:33:14 51°14.819 2°54.75 4.5137 2.763046 28.551943 1.5447
2005-02-21 08:33:21 51°14.842 2°54.74 4.5172 2.772516 28.660504 1.5447
2005-02-21 08:33:25 51°14.856 2°54.734 4.5183 2.782196 28.770756 1.578409
2005-02-21 08:33:30 51°14.875 2°54.725 4.518 2.790193 28.86034 1.612118
2005-02-21 08:33:36 51°14.894 2°54.715 4.5299 2.800189 28.973516 1.645828
2005-02-21 08:33:41 51°14.912 2°54.707 4.528 2.80261 28.998026 1.713247
2005-02-21 08:33:45 51°14.927 2°54.699 4.5255 2.80261 28.998026 1.713247
2005-02-21 08:33:50 51°14.945 2°54.691 4.5314 2.805766 29.032477 1.645828
2005-02-21 08:33:56 51°14.965 2°54.682 4.5271 2.80987 29.078503 1.713247
2005-02-21 08:34:01 51°14.982 2°54.673 4.5237 2.813974 29.122988 1.679537
2005-02-21 08:34:06 51°15 2°54.665 4.5327 2.822287 29.215497 1.713247
2005-02-21 08:34:10 51°15.015 2°54.658 4.5424 2.822287 29.215497 1.713247
2005-02-21 08:34:16 51°15.034 2°54.649 4.5322 2.824497 29.238381 1.713247
2005-02-21 08:34:21 51°15.051 2°54.641 4.5263 2.831969 29.323647 1.780665
2005-02-21 08:34:25 51°15.067 2°54.633 4.5309 2.833337 29.335363 1.780665
2005-02-21 08:34:30 51°15.085 2°54.625 4.5296 2.837862 29.389359 1.746956
2005-02-21 08:34:35 51°15.102 2°54.617 4.5346 2.842071 29.43664 1.746956
2005-02-21 08:34:41 51°15.121 2°54.608 4.5425 2.842071 29.43664 1.746956
2005-02-21 08:34:45 51°15.135 2°54.6 4.5429 2.843439 29.450697 1.780665
2005-02-21 08:34:50 51°15.153 2°54.591 4.5532 2.845649 29.474368 1.814375
2005-02-21 08:34:54 51°15.167 2°54.583 4.5607 2.851016 29.537237 1.814375
2005-02-21 08:35:00 51°15.188 2°54.573 4.5503 2.853857 29.568912 1.848084
2005-02-21 08:35:05 51°15.205 2°54.564 4.5529 2.857856 29.615392 1.949212
2005-02-21 08:35:11 51°15.225 2°54.556 4.5594 2.857856 29.615392 1.949212
2005-02-21 08:35:16 51°15.242 2°54.549 4.5598 2.859961 29.634719 1.915503
2005-02-21 08:35:20 51°15.258 2°54.541 4.5641 2.862171 29.658397 1.982922
2005-02-21 08:35:25 51°15.276 2°54.532 4.5658 2.863434 29.66731 2.050341
2005-02-21 08:35:30 51°15.293 2°54.524 4.5728 2.864486 29.675393 2.117759
2005-02-21 08:35:35 51°15.309 2°54.516 4.5738 2.867644 29.710677 2.151469
2005-02-21 08:35:40 51°15.329 2°54.507 4.5768 2.867644 29.710677 2.151469
2005-02-21 08:35:45 51°15.346 2°54.499 4.5785 2.86817 29.711954 2.185178
2005-02-21 08:35:50 51°15.363 2°54.491 4.5817 2.868064 29.709173 2.286306
2005-02-21 08:35:56 51°15.383 2°54.482 4.5851 2.868801 29.715222 2.387435
2005-02-21 08:36:01 51°15.401 2°54.474 4.586 2.870064 29.72807 2.421144
2005-02-21 08:36:06 51°15.418 2°54.467 4.586 2.869853 29.721719 2.589691
2005-02-21 08:36:10 51°15.434 2°54.46 4.5912 2.869853 29.721719 2.589691
2005-02-21 08:36:15 51°15.452 2°54.452 4.5839 2.87059 29.727766 2.488563
2005-02-21 08:36:21 51°15.471 2°54.443 4.5876 2.87038 29.722206 2.488563
2005-02-21 08:36:25 51°15.486 2°54.437 4.5874 2.870485 29.721041 2.454853
2005-02-21 08:36:30 51°15.505 2°54.428 4.5925 2.870485 29.718674 2.421144
2005-02-21 08:36:35 51°15.523 2°54.42 4.5941 2.870274 29.714693 2.387435
2005-02-21 08:36:41 51°15.542 2°54.411 4.5947 2.870274 29.714693 2.387435
2005-02-21 08:36:45 51°15.558 2°54.405 4.5947 2.8708 29.719124 2.421144
2005-02-21 08:36:50 51°15.575 2°54.396 4.5989 2.871327 29.725132 2.387435
2005-02-21 08:36:55 51°15.592 2°54.389 4.5955 2.871432 29.726334 2.353725
2005-02-21 08:37:00 51°15.61 2°54.38 4.5967 2.871432 29.723967 2.286306
2005-02-21 08:37:05 51°15.628 2°54.371 4.5925 2.871327 29.7204 2.218888
2005-02-21 08:37:10 51°15.645 2°54.363 4.5923 2.871116 29.715631 2.117759
2005-02-21 08:37:14 51°15.659 2°54.357 4.5945 2.871116 29.715631 2.117759
2005-02-21 08:37:20 51°15.68 2°54.347 4.5917 2.872274 29.728058 2.050341
2005-02-21 08:37:26 51°15.699 2°54.338 4.5867 2.872695 29.732074 2.016631
2005-02-21 08:37:30 51°15.715 2°54.33 4.5858 2.8728 29.734064 1.881794
2005-02-21 08:37:36 51°15.734 2°54.321 4.5887 2.873221 29.739659 1.848084
2005-02-21 08:37:41 51°15.752 2°54.313 4.5869 2.873221 29.739659 1.848084
2005-02-21 08:37:45 51°15.766 2°54.305 4.5901 2.87301 29.738045 1.746956
2005-02-21 08:37:50 51°15.785 2°54.297 4.5942 2.872169 29.728434 1.713247
2005-02-21 08:37:55 51°15.802 2°54.288 4.587 2.871537 29.721225 1.713247
2005-02-21 08:38:01 51°15.821 2°54.278 4.5822 2.87259 29.737185 1.645828
2005-02-21 08:38:05 51°15.836 2°54.27 4.5837 2.872695 29.738386 1.612118
2005-02-21 08:38:10 51°15.853 2°54.261 4.5807 2.872695 29.738386 1.612118
2005-02-21 08:38:15 51°15.869 2°54.252 4.5816 2.871748 29.727572 1.645828
2005-02-21 08:38:21 51°15.889 2°54.241 4.5821 2.871432 29.72239 1.612118
2005-02-21 08:38:25 51°15.903 2°54.234 4.586 2.871221 29.721564 1.578409
2005-02-21 08:38:30 51°15.919 2°54.225 4.5904 2.87259 29.739552 1.5447
2005-02-21 08:38:34 51°15.932 2°54.218 4.5887 2.872695 29.741543 1.5447
2005-02-21 08:38:41 51°15.951 2°54.207 4.5878 2.872695 29.741543 1.5447
2005-02-21 08:38:45 51°15.963 2°54.201 4.5897 2.872905 29.744736 1.5447
2005-02-21 08:38:50 51°15.975 2°54.194 4.5949 2.873747 29.75593 1.51099
2005-02-21 08:38:55 51°15.987 2°54.189 4.5921 2.874379 29.763142 1.443571
2005-02-21 08:39:01 51°16.002 2°54.183 4.5947 2.874063 29.757956 1.51099
2005-02-21 08:39:06 51°16.015 2°54.18 4.5864 2.874589 29.760806 1.51099
2005-02-21 08:39:10 51°16.026 2°54.179 4.5856 2.874589 29.760806 1.51099
2005-02-21 08:39:15 51°16.037 2°54.179 4.5863 2.875852 29.774437 1.5447
2005-02-21 08:39:20 51°16.05 2°54.18 4.5909 2.876694 29.782471 1.578409
2005-02-21 08:39:26 51°16.062 2°54.184 4.5855 2.876062 29.774471 1.612118
2005-02-21 08:39:30 51°16.072 2°54.188 4.5852 2.875221 29.763278 1.679537
2005-02-21 08:39:35 51°16.084 2°54.194 4.5869 2.873747 29.747245 1.645828
2005-02-21 08:39:41 51°16.096 2°54.202 4.5846 2.873747 29.747245 1.645828
2005-02-21 08:39:45 51°16.105 2°54.209 4.5838 2.873747 29.748824 1.612118
2005-02-21 08:39:51 51°16.119 2°54.218 4.5866 2.87301 29.740413 1.645828
2005-02-21 08:39:56 51°16.13 2°54.226 4.5906 2.871853 29.726407 1.645828
2005-02-21 08:40:00 51°16.14 2°54.233 4.5939 2.8708 29.716758 1.679537
2005-02-21 08:40:05 51°16.151 2°54.24 4.5901 2.870169 29.711126 1.645828
2005-02-21 08:40:10 51°16.161 2°54.248 4.5894 2.869538 29.704705 1.713247
2005-02-21 08:40:16 51°16.173 2°54.255 4.5909 2.869538 29.704705 1.713247
2005-02-21 08:40:20 51°16.181 2°54.26 4.597 2.869853 29.70831 1.713247
2005-02-21 08:40:25 51°16.19 2°54.266 4.5898 2.869538 29.703917 1.814375
2005-02-21 08:40:30 51°16.199 2°54.271 4.5911 2.869748 29.705532 1.848084
2005-02-21 08:40:36 51°16.208 2°54.276 4.5901 2.870379 29.711164 1.949212
2005-02-21 08:40:41 51°16.215 2°54.281 4.5935 2.870379 29.711164 1.949212
2005-02-21 08:40:46 51°16.223 2°54.285 4.5966 2.871327 29.723554 2.08405
2005-02-21 08:40:50 51°16.229 2°54.288 4.5944 2.871116 29.721151 2.117759
2005-02-21 08:40:56 51°16.236 2°54.293 4.5995 2.871537 29.725169 2.151469
2005-02-21 08:41:01 51°16.241 2°54.296 4.5989 2.872274 29.73358 2.151469
2005-02-21 08:41:05 51°16.246 2°54.298 4.5932 2.872905 29.740789 2.252597
2005-02-21 08:41:10 51°16.251 2°54.3 4.5985 2.872905 29.740789 2.252597
2005-02-21 08:41:14 51°16.254 2°54.301 4.5957 2.87301 29.74278 2.320016
2005-02-21 08:41:20 51°16.258 2°54.303 4.5937 2.8728 29.738799 2.286306
2005-02-21 08:41:26 51°16.26 2°54.303 4.6012 2.873537 29.745631 2.353725
2005-02-21 08:41:31 51°16.262 2°54.304 4.5935 2.873537 29.744842 2.320016
2005-02-21 08:41:35 51°16.264 2°54.303 4.5902 2.873958 29.748859 2.320016
2005-02-21 08:41:40 51°16.266 2°54.304 4.5901 2.873958 29.748859 2.320016
2005-02-21 08:41:46 51°16.268 2°54.303 4.5951 2.874589 29.755279 2.320016
2005-02-21 08:41:50 51°16.27 2°54.303 4.5977 2.874589 29.756068 2.387435
2005-02-21 08:41:55 51°16.271 2°54.303 4.5953 2.874484 29.754867 2.218888
2005-02-21 08:42:01 51°16.272 2°54.303 4.5975 2.875747 29.769286 2.218888
2005-02-21 08:42:05 51°16.274 2°54.302 4.598 2.876273 29.776874 2.151469
2005-02-21 08:42:10 51°16.275 2°54.301 4.5939 2.87701 29.786867 2.151469
2005-02-21 08:42:15 51°16.277 2°54.3 4.5958 2.87701 29.786867 2.151469
2005-02-21 08:42:20 51°16.278 2°54.299 4.6009 2.87722 29.790061 2.016631
2005-02-21 08:42:26 51°16.279 2°54.299 4.6032 2.877325 29.790473 2.016631
2005-02-21 08:42:30 51°16.28 2°54.297 4.6008 2.877431 29.790884 1.949212
2005-02-21 08:42:34 51°16.281 2°54.296 4.6051 2.877536 29.792086 1.915503
2005-02-21 08:42:40 51°16.281 2°54.295 4.6 2.877536 29.792086 1.915503
2005-02-21 08:42:45 51°16.282 2°54.294 4.5979 2.877957 29.797684 1.848084
2005-02-21 08:42:50 51°16.283 2°54.293 4.5965 2.878167 29.799297 1.814375
2005-02-21 08:42:56 51°16.284 2°54.292 4.5995 2.878167 29.797716 1.848084
2005-02-21 08:43:01 51°16.284 2°54.29 4.5968 2.878273 29.798127 1.848084
2005-02-21 08:43:06 51°16.284 2°54.289 4.5956 2.878483 29.79974 1.814375
2005-02-21 08:43:10 51°16.285 2°54.288 4.597 2.878483 29.79974 1.814375
2005-02-21 08:43:15 51°16.285 2°54.288 4.6001 2.878273 29.795755 1.780665
2005-02-21 08:43:21 51°16.286 2°54.286 4.5987 2.878483 29.798949 1.746956
2005-02-21 08:43:25 51°16.286 2°54.285 4.5984 2.878904 29.803756 1.746956
2005-02-21 08:43:30 51°16.286 2°54.284 4.5963 2.878904 29.806129 1.679537
2005-02-21 08:43:34 51°16.287 2°54.283 4.6015 2.878904 29.806129 1.679537
2005-02-21 08:43:40 51°16.287 2°54.282 4.5966 2.878904 29.806129 1.679537
2005-02-21 08:43:45 51°16.287 2°54.281 4.5936 2.878694 29.804516 1.746956
2005-02-21 08:43:50 51°16.287 2°54.28 4.5955 2.878167 29.797716 1.713247
2005-02-21 08:43:55 51°16.287 2°54.28 4.5915 2.878694 29.804516 1.612118
2005-02-21 08:44:01 51°16.288 2°54.279 4.5927 2.878799 29.805718 1.645828
2005-02-21 08:44:06 51°16.288 2°54.278 4.5914 2.878483 29.801321 1.612118
2005-02-21 08:44:10 51°16.288 2°54.277 4.5962 2.878904 29.80692 1.612118
2005-02-21 08:44:15 51°16.288 2°54.276 4.5955 2.878904 29.80692 1.612118
2005-02-21 08:44:20 51°16.288 2°54.275 4.5947 2.878904 29.807711 1.612118
2005-02-21 08:44:25 51°16.288 2°54.275 4.5927 2.879325 29.814892 1.578409
2005-02-21 08:44:30 51°16.288 2°54.274 4.5924 2.878273 29.803663 1.578409
2005-02-21 08:44:36 51°16.288 2°54.273 4.588 2.878694 29.808471 1.578409
2005-02-21 08:44:41 51°16.288 2°54.272 4.591 2.878694 29.808471 1.578409
2005-02-21 08:44:45 51°16.288 2°54.271 4.5947 2.879009 29.811286 1.5447
2005-02-21 08:44:50 51°16.288 2°54.27 4.5891 2.878694 29.806889 1.5447
2005-02-21 08:44:56 51°16.287 2°54.27 4.589 2.878694 29.80768 1.5447
2005-02-21 08:45:01 51°16.287 2°54.268 4.5894 2.878799 29.809673 1.5447
2005-02-21 08:45:05 51°16.287 2°54.268 4.589 2.878904 29.811666 1.5447
2005-02-21 08:45:10 51°16.287 2°54.267 4.5894 2.878904 29.811666 1.5447
2005-02-21 08:45:15 51°16.287 2°54.267 4.5901 2.878694 29.811635 1.477281
2005-02-21 08:45:21 51°16.287 2°54.266 4.5891 2.878694 29.810844 1.578409
2005-02-21 08:45:25 51°16.287 2°54.266 4.5886 2.878273 29.806036 1.477281
2005-02-21 08:45:30 51°16.286 2°54.265 4.5891 2.878694 29.812427 1.443571
2005-02-21 08:45:35 51°16.286 2°54.265 4.5885 2.879115 29.817235 1.477281
2005-02-21 08:45:41 51°16.286 2°54.264 4.5899 2.878694 29.813218 1.51099
2005-02-21 08:45:45 51°16.285 2°54.264 4.5886 2.878694 29.813218 1.51099
2005-02-21 08:45:50 51°16.285 2°54.263 4.5885 2.878799 29.813629 1.443571
2005-02-21 08:45:55 51°16.285 2°54.262 4.5861 2.878904 29.814831 1.51099
2005-02-21 08:46:01 51°16.284 2°54.262 4.5876 2.879009 29.816825 1.443571
2005-02-21 08:46:05 51°16.284 2°54.262 4.5891 2.878694 29.814009 1.51099
2005-02-21 08:46:10 51°16.284 2°54.261 4.5848 2.878904 29.816414 1.443571
2005-02-21 08:46:14 51°16.284 2°54.261 4.5867 2.878904 29.816414 1.443571
2005-02-21 08:46:21 51°16.283 2°54.261 4.587 2.878694 29.814009 1.443571
2005-02-21 08:46:25 51°16.283 2°54.26 4.5866 2.879115 29.81961 1.443571
2005-02-21 08:46:30 51°16.283 2°54.26 4.5852 2.878694 29.815592 1.443571
2005-02-21 08:46:36 51°16.283 2°54.259 4.591 2.878904 29.817205 1.477281
2005-02-21 08:46:41 51°16.282 2°54.259 4.586 2.878904 29.817205 1.477281
2005-02-21 08:46:45 51°16.282 2°54.258 4.5868 2.878694 29.815592 1.477281
2005-02-21 08:46:50 51°16.281 2°54.258 4.5862 2.878694 29.816384 1.443571
2005-02-21 08:46:54 51°16.281 2°54.257 4.5867 2.878483 29.813187 1.477281
2005-02-21 08:47:01 51°16.28 2°54.257 4.5878 2.878378 29.811985 1.409862
2005-02-21 08:47:05 51°16.28 2°54.256 4.5915 2.878588 29.815973 1.477281
2005-02-21 08:47:10 51°16.279 2°54.256 4.588 2.878588 29.815973 1.477281
2005-02-21 08:47:16 51°16.279 2°54.255 4.5852 2.878694 29.815592 1.477281
2005-02-21 08:47:21 51°16.278 2°54.255 4.5848 2.878483 29.813979 1.376153
2005-02-21 08:47:25 51°16.278 2°54.254 4.5863 2.878799 29.817586 1.409862
2005-02-21 08:47:30 51°16.277 2°54.254 4.5844 2.878694 29.814801 1.443571
2005-02-21 08:47:35 51°16.277 2°54.253 4.5875 2.878799 29.815212 1.409862
2005-02-21 08:47:41 51°16.277 2°54.252 4.5866 2.878799 29.815212 1.409862
2005-02-21 08:47:45 51°16.276 2°54.252 4.5891 2.878378 29.80882 1.409862
2005-02-21 08:47:50 51°16.275 2°54.252 4.5866 2.878483 29.812396 1.443571
2005-02-21 08:47:54 51°16.275 2°54.251 4.5912 2.878904 29.818788 1.409862
2005-02-21 08:48:01 51°16.274 2°54.251 4.5865 2.878588 29.81439 1.342443
2005-02-21 08:48:05 51°16.273 2°54.25 4.5842 2.878273 29.812366 1.477281
2005-02-21 08:48:10 51°16.272 2°54.25 4.5833 2.878273 29.812366 1.477281
2005-02-21 08:48:15 51°16.272 2°54.249 4.5856 2.878904 29.81958 1.443571
2005-02-21 08:48:21 51°16.271 2°54.25 4.5871 2.878378 29.812777 1.443571
2005-02-21 08:48:25 51°16.27 2°54.249 4.5846 2.878694 29.816384 1.342443
2005-02-21 08:48:31 51°16.269 2°54.249 4.5866 2.879009 29.818408 1.443571
2005-02-21 08:48:35 51°16.269 2°54.248 4.5872 2.878588 29.81439 1.376153
2005-02-21 08:48:40 51°16.268 2°54.248 4.5859 2.878588 29.81439 1.376153
2005-02-21 08:48:45 51°16.267 2°54.248 4.5879 2.878904 29.820372 1.342443
2005-02-21 08:48:51 51°16.266 2°54.247 4.585 2.879009 29.821574 1.342443
2005-02-21 08:48:55 51°16.266 2°54.247 4.584 2.879009 29.820782 1.409862
2005-02-21 08:49:01 51°16.265 2°54.247 4.5904 2.879009 29.820782 1.409862
2005-02-21 08:49:05 51°16.264 2°54.247 4.5864 2.879115 29.821985 1.409862
2005-02-21 08:49:10 51°16.264 2°54.247 4.5872 2.878799 29.819169 1.409862
2005-02-21 08:49:15 51°16.263 2°54.247 4.5868 2.878799 29.819169 1.409862
2005-02-21 08:49:21 51°16.262 2°54.246 4.5889 2.879009 29.821574 1.376153
2005-02-21 08:49:25 51°16.262 2°54.246 4.5872 2.87922 29.823979 1.376153
2005-02-21 08:49:30 51°16.26 2°54.246 4.587 2.878799 29.820752 1.409862
2005-02-21 08:49:36 51°16.259 2°54.246 4.5879 2.879009 29.821574 1.342443
2005-02-21 08:49:41 51°16.259 2°54.246 4.586 2.879009 29.821574 1.342443
2005-02-21 08:49:45 51°16.258 2°54.246 4.586 2.878694 29.817175 1.376153
2005-02-21 08:49:50 51°16.257 2°54.245 4.588 2.879115 29.821985 1.376153
2005-02-21 08:49:55 51°16.257 2°54.245 4.5872 2.879536 29.826795 1.376153
2005-02-21 08:50:01 51°16.256 2°54.245 4.5825 2.879641 29.828789 1.342443
2005-02-21 08:50:05 51°16.255 2°54.245 4.5828 2.879009 29.821574 1.443571
2005-02-21 08:50:10 51°16.254 2°54.245 4.5822 2.879009 29.821574 1.443571
2005-02-21 08:50:15 51°16.254 2°54.245 4.5825 2.878694 29.816384 1.376153
2005-02-21 08:50:20 51°16.253 2°54.245 4.5819 2.878799 29.819169 1.443571
2005-02-21 08:50:25 51°16.252 2°54.245 4.5825 2.879641 29.827997 1.443571
2005-02-21 08:50:30 51°16.252 2°54.245 4.583 2.879746 29.826032 1.409862
2005-02-21 08:50:35 51°16.251 2°54.244 4.584 2.879746 29.825241 1.612118
2005-02-21 08:50:41 51°16.25 2°54.245 4.5847 2.879746 29.825241 1.612118
2005-02-21 08:50:45 51°16.249 2°54.244 4.5889 2.879325 29.821223 1.5447
2005-02-21 08:50:50 51°16.249 2°54.244 4.5873 2.878483 29.812396 1.51099
2005-02-21 08:50:55 51°16.248 2°54.243 4.5876 2.879325 29.822806 1.51099
2005-02-21 08:51:01 51°16.247 2°54.245 4.5873 2.879115 29.820401 1.477281
2005-02-21 08:51:05 51°16.247 2°54.244 4.5925 2.879115 29.81961 1.477281
2005-02-21 08:51:10 51°16.245 2°54.244 4.5917 2.878273 29.810783 1.5447
2005-02-21 08:51:16 51°16.245 2°54.244 4.5918 2.878273 29.810783 1.5447
2005-02-21 08:51:21 51°16.244 2°54.244 4.5936 2.878904 29.815622 1.5447
2005-02-21 08:51:25 51°16.243 2°54.244 4.5946 2.879115 29.818027 1.578409
2005-02-21 08:51:30 51°16.243 2°54.244 4.5938 2.877536 29.799203 1.612118
2005-02-21 08:51:34 51°16.242 2°54.244 4.5972 2.878273 29.806036 1.612118
2005-02-21 08:51:41 51°16.241 2°54.244 4.5947 2.878273 29.806036 1.612118
2005-02-21 08:51:46 51°16.24 2°54.243 4.597 2.877115 29.792022 1.645828
2005-02-21 08:51:50 51°16.24 2°54.244 4.5966 2.877852 29.798854 1.645828
2005-02-21 08:51:56 51°16.239 2°54.244 4.5959 2.877746 29.797653 1.578409
2005-02-21 08:52:01 51°16.238 2°54.244 4.5938 2.877641 29.79566 1.612118
2005-02-21 08:52:06 51°16.238 2°54.244 4.5949 2.877115 29.78886 1.679537
2005-02-21 08:52:10 51°16.237 2°54.243 4.598 2.877115 29.78886 1.679537
2005-02-21 08:52:15 51°16.236 2°54.244 4.5964 2.876799 29.783673 1.578409
2005-02-21 08:52:21 51°16.236 2°54.243 4.6001 2.878062 29.798095 1.645828
2005-02-21 08:52:25 51°16.235 2°54.242 4.5961 2.876378 29.778076 1.612118
2005-02-21 08:52:30 51°16.236 2°54.24 4.5977 2.87722 29.78769 1.679537
2005-02-21 08:52:36 51°16.236 2°54.238 4.598 2.877957 29.797684 1.645828
2005-02-21 08:52:41 51°16.237 2°54.235 4.5998 2.877957 29.797684 1.645828
2005-02-21 08:52:45 51°16.238 2°54.232 4.6008 2.877957 29.796893 1.645828
2005-02-21 08:52:50 51°16.24 2°54.227 4.6016 2.877641 29.792497 1.645828
2005-02-21 08:52:54 51°16.241 2°54.222 4.6029 2.876694 29.781681 1.645828
2005-02-21 08:53:00 51°16.245 2°54.215 4.6046 2.877957 29.796103 1.578409
2005-02-21 08:53:06 51°16.248 2°54.207 4.6023 2.877536 29.790505 1.5447
2005-02-21 08:53:10 51°16.251 2°54.2 4.6018 2.877115 29.785698 1.578409
2005-02-21 08:53:15 51°16.255 2°54.192 4.5999 2.877115 29.785698 1.578409
2005-02-21 08:53:21 51°16.26 2°54.182 4.6003 2.876168 29.773302 1.51099
2005-02-21 08:53:25 51°16.264 2°54.175 4.5937 2.8748 29.757682 1.51099
2005-02-21 08:53:30 51°16.269 2°54.164 4.5906 2.876273 29.772924 1.477281
2005-02-21 08:53:35 51°16.275 2°54.153 4.5928 2.876378 29.771756 1.51099
2005-02-21 08:53:41 51°16.283 2°54.137 4.5912 2.876378 29.771756 1.51099
2005-02-21 08:53:45 51°16.289 2°54.124 4.5846 2.876589 29.774949 1.376153
2005-02-21 08:53:51 51°16.297 2°54.107 4.5815 2.876273 29.772134 1.443571
2005-02-21 08:53:56 51°16.305 2°54.091 4.5866 2.875747 29.768496 1.51099
2005-02-21 08:54:01 51°16.313 2°54.073 4.5753 2.875957 29.774059 1.443571
2005-02-21 08:54:05 51°16.321 2°54.058 4.5769 2.876483 29.782439 1.443571
2005-02-21 08:54:10 51°16.33 2°54.038 4.577 2.876483 29.782439 1.443571
2005-02-21 08:54:16 51°16.34 2°54.017 4.5845 2.875747 29.774026 1.477281
2005-02-21 08:54:21 51°16.349 2°53.999 4.5754 2.876378 29.783608 1.51099
2005-02-21 08:54:25 51°16.358 2°53.981 4.5779 2.877115 29.795976 1.409862
2005-02-21 08:54:30 51°16.368 2°53.961 4.5808 2.877115 29.796767 1.409862
2005-02-21 08:54:34 51°16.375 2°53.945 4.5912 2.877326 29.803127 1.409862
2005-02-21 08:54:41 51°16.389 2°53.918 4.5982 2.877852 29.810722 1.443571
2005-02-21 08:54:46 51°16.399 2°53.899 4.6043 2.877852 29.810722 1.443571
2005-02-21 08:54:50 51°16.408 2°53.879 4.6046 2.877431 29.804329 1.477281
2005-02-21 08:54:55 51°16.417 2°53.86 4.6105 2.878167 29.815121 1.51099
2005-02-21 08:55:00 51°16.429 2°53.836 4.621 2.879009 29.824741 1.477281
2005-02-21 08:55:06 51°16.441 2°53.813 4.6224 2.881325 29.848822 1.578409
2005-02-21 08:55:10 51°16.451 2°53.793 4.6313 2.88343 29.86574 1.645828
2005-02-21 08:55:14 51°16.459 2°53.776 4.6314 2.88343 29.86574 1.645828
2005-02-21 08:55:20 51°16.472 2°53.75 4.6343 2.886271 29.891862 1.746956
2005-02-21 08:55:26 51°16.486 2°53.723 4.6311 2.888797 29.916751 1.814375
2005-02-21 08:55:31 51°16.495 2°53.704 4.631 2.89027 29.928027 1.848084
2005-02-21 08:55:36 51°16.507 2°53.68 4.6363 2.891428 29.934899 1.915503
2005-02-21 08:55:41 51°16.517 2°53.658 4.6369 2.891428 29.934899 1.915503
2005-02-21 08:55:45 51°16.527 2°53.638 4.6349 2.894059 29.96098 1.915503
2005-02-21 08:55:50 51°16.539 2°53.615 4.6382 2.895638 29.973447 2.016631
2005-02-21 08:55:55 51°16.549 2°53.594 4.6365 2.896585 29.981086 1.982922
2005-02-21 08:56:00 51°16.56 2°53.571 4.6377 2.8969 29.983102 1.949212
2005-02-21 08:56:05 51°16.571 2°53.547 4.6371 2.897742 29.991921 2.050341
2005-02-21 08:56:10 51°16.582 2°53.525 4.6444 2.897742 29.991921 2.050341
2005-02-21 08:56:16 51°16.594 2°53.501 4.6454 2.898795 30.002349 2.050341
2005-02-21 08:56:21 51°16.605 2°53.477 4.6497 2.899637 30.011169 2.050341
2005-02-21 08:56:25 51°16.615 2°53.458 4.6493 2.897848 29.989943 2.050341
2005-02-21 08:56:30 51°16.627 2°53.436 4.6455 2.900268 30.016789 2.117759
2005-02-21 08:56:35 51°16.638 2°53.413 4.6493 2.902163 30.038423 2.117759
2005-02-21 08:56:41 51°16.649 2°53.39 4.6515 2.901531 30.02962 2.218888
2005-02-21 08:56:45 51°16.659 2°53.368 4.6497 2.901531 30.02962 2.218888
2005-02-21 08:56:50 51°16.67 2°53.345 4.6569 2.903847 30.054469 2.353725
2005-02-21 08:56:55 51°16.679 2°53.324 4.6574 2.905531 30.071309 2.454853
2005-02-21 08:57:01 51°16.691 2°53.294 4.662 2.905952 30.074523 2.522272
2005-02-21 08:57:05 51°16.701 2°53.275 4.6602 2.906794 30.083342 2.589691
2005-02-21 08:57:10 51°16.71 2°53.251 4.6601 2.906794 30.083342 2.589691
2005-02-21 08:57:15 51°16.72 2°53.229 4.6594 2.905531 30.066529 2.589691
2005-02-21 08:57:21 51°16.732 2°53.201 4.6651 2.907425 30.086567 2.6234
2005-02-21 08:57:25 51°16.741 2°53.182 4.6664 2.90753 30.086175 2.6234
2005-02-21 08:57:30 51°16.752 2°53.158 4.667 2.908688 30.098597 2.65711
2005-02-21 08:57:35 51°16.761 2°53.137 4.6711 2.908793 30.097407 2.65711
2005-02-21 08:57:40 51°16.773 2°53.111 4.6728 2.908793 30.097407 2.65711
2005-02-21 08:57:46 51°16.785 2°53.085 4.6719 2.90953 30.103427 2.6234
2005-02-21 08:57:50 51°16.794 2°53.064 4.6823 2.910267 30.111041 2.724529
2005-02-21 08:57:56 51°16.806 2°53.037 4.6933 2.910793 30.116251 2.859366
2005-02-21 08:58:00 51°16.815 2°53.015 4.6994 2.91153 30.12227 2.791947
2005-02-21 08:58:05 51°16.825 2°52.991 4.7004 2.912266 30.128287 2.926785
2005-02-21 08:58:10 51°16.835 2°52.967 4.7068 2.912056 30.124289 2.791947
2005-02-21 08:58:16 51°16.845 2°52.941 4.7098 2.912056 30.124289 2.791947
2005-02-21 08:58:21 51°16.855 2°52.917 4.7199 2.912792 30.131901 2.825657
2005-02-21 08:58:25 51°16.863 2°52.894 4.7202 2.914371 30.145933 2.893076
2005-02-21 08:58:30 51°16.874 2°52.87 4.7275 2.915424 30.149966 2.926785
2005-02-21 08:58:36 51°16.886 2°52.845 4.7208 2.917529 30.167603 2.960494
2005-02-21 08:58:40 51°16.895 2°52.826 4.7293 2.916897 30.155609 2.825657
2005-02-21 08:58:45 51°16.907 2°52.803 4.7368 2.916897 30.155609 2.825657
2005-02-21 08:58:50 51°16.919 2°52.782 4.7387 2.919423 30.178043 2.724529
2005-02-21 08:58:55 51°16.93 2°52.763 4.7401 2.922265 30.203274 2.6234
2005-02-21 08:59:01 51°16.944 2°52.739 4.7364 2.925212 30.232096 2.724529
2005-02-21 08:59:05 51°16.956 2°52.719 4.7356 2.926685 30.244107 2.690819
2005-02-21 08:59:10 51°16.968 2°52.699 4.7352 2.926685 30.244107 2.690819
2005-02-21 08:59:15 51°16.98 2°52.679 4.7392 2.928685 30.264517 2.690819
2005-02-21 08:59:21 51°16.994 2°52.655 4.7295 2.929843 30.273722 2.589691
2005-02-21 08:59:25 51°17.006 2°52.637 4.7292 2.930264 30.273723 2.690819
2005-02-21 08:59:30 51°17.018 2°52.617 4.7256 2.931737 30.286525 2.690819
2005-02-21 08:59:35 51°17.03 2°52.598 4.7274 2.931527 30.283325 2.555982
2005-02-21 08:59:41 51°17.044 2°52.576 4.7291 2.930158 30.270123 2.488563
2005-02-21 08:59:45 51°17.055 2°52.557 4.7279 2.930158 30.270123 2.488563
2005-02-21 08:59:50 51°17.069 2°52.538 4.7245 2.931106 30.280924 2.488563
2005-02-21 08:59:55 51°17.081 2°52.519 4.7268 2.930579 30.276523 2.421144
2005-02-21 09:00:00 51°17.094 2°52.5 4.7326 2.929527 30.265321 2.421144
2005-02-21 09:00:05 51°17.107 2°52.482 4.7322 2.929211 30.26332 2.320016
2005-02-21 09:00:10 51°17.121 2°52.462 4.7346 2.929211 30.26492 2.320016
2005-02-21 09:00:15 51°17.133 2°52.443 4.729 2.929211 30.26492 2.320016
2005-02-21 09:00:21 51°17.148 2°52.423 4.7343 2.928369 30.256117 2.185178
2005-02-21 09:00:25 51°17.158 2°52.407 4.7364 2.92879 30.260918 2.218888
2005-02-21 09:00:30 51°17.172 2°52.385 4.7308 2.928474 30.257317 2.353725
2005-02-21 09:00:36 51°17.186 2°52.364 4.7313 2.929316 30.26532 2.421144
2005-02-21 09:00:41 51°17.199 2°52.345 4.7354 2.929316 30.26532 2.421144
2005-02-21 09:00:45 51°17.21 2°52.33 4.7301 2.929001 30.26092 2.454853
2005-02-21 09:00:50 51°17.225 2°52.308 4.7305 2.929106 30.26052 2.522272
2005-02-21 09:00:55 51°17.237 2°52.289 4.7284 2.92879 30.257719 2.421144
2005-02-21 09:01:01 51°17.252 2°52.266 4.7327 2.928264 30.25012 2.353725
2005-02-21 09:01:05 51°17.264 2°52.25 4.7307 2.928369 30.252119 2.286306
2005-02-21 09:01:10 51°17.277 2°52.231 4.7281 2.928369 30.252119 2.286306
2005-02-21 09:01:15 51°17.291 2°52.211 4.728 2.927948 30.247319 2.185178
2005-02-21 09:01:21 51°17.305 2°52.193 4.7257 2.927106 30.238517 2.185178
2005-02-21 09:01:26 51°17.318 2°52.174 4.7258 2.927316 30.240918 2.151469
2005-02-21 09:01:30 51°17.33 2°52.157 4.7234 2.926053 30.227316 2.016631
2005-02-21 09:01:35 51°17.344 2°52.139 4.7204 2.926053 30.226517 1.881794
2005-02-21 09:01:41 51°17.358 2°52.121 4.7212 2.925422 30.219317 1.881794
2005-02-21 09:01:45 51°17.369 2°52.106 4.725 2.925422 30.219317 1.881794
2005-02-21 09:01:50 51°17.385 2°52.085 4.7237 2.925422 30.220116 1.746956
2005-02-21 09:01:55 51°17.398 2°52.069 4.7228 2.925001 30.217711 1.780665
2005-02-21 09:02:00 51°17.412 2°52.05 4.72 2.924159 30.208111 1.746956
2005-02-21 09:02:05 51°17.426 2°52.031 4.7216 2.923843 30.206107 1.780665
2005-02-21 09:02:10 51°17.44 2°52.013 4.7193 2.923843 30.206107 1.780665
2005-02-21 09:02:15 51°17.454 2°51.996 4.7167 2.923738 30.206504 1.780665
2005-02-21 09:02:21 51°17.47 2°51.975 4.7153 2.923843 30.207704 1.746956
2005-02-21 09:02:25 51°17.481 2°51.96 4.718 2.923422 30.202904 1.746956
2005-02-21 09:02:30 51°17.496 2°51.942 4.7115 2.923843 30.209301 1.780665
2005-02-21 09:02:35 51°17.51 2°51.924 4.7127 2.922791 30.198098 1.746956
2005-02-21 09:02:41 51°17.526 2°51.904 4.7109 2.922791 30.198098 1.746956
2005-02-21 09:02:45 51°17.538 2°51.889 4.7137 2.922264 30.191299 1.746956
2005-02-21 09:02:50 51°17.553 2°51.871 4.7124 2.921002 30.179291 1.612118
2005-02-21 09:02:56 51°17.568 2°51.852 4.7134 2.92016 30.172083 1.612118
2005-02-21 09:03:00 51°17.581 2°51.836 4.7166 2.919739 30.16808 1.612118
2005-02-21 09:03:05 51°17.595 2°51.818 4.7176 2.919002 30.160476 1.612118
2005-02-21 09:03:10 51°17.609 2°51.801 4.7249 2.918686 30.158471 1.612118
2005-02-21 09:03:15 51°17.622 2°51.784 4.7227 2.918686 30.158471 1.612118
2005-02-21 09:03:21 51°17.639 2°51.764 4.7263 2.919423 30.16767 1.578409
2005-02-21 09:03:25 51°17.652 2°51.748 4.727 2.92016 30.176072 1.645828
2005-02-21 09:03:30 51°17.666 2°51.731 4.7321 2.920791 30.182476 1.848084
2005-02-21 09:03:34 51°17.678 2°51.716 4.7362 2.922265 30.197684 1.814375
2005-02-21 09:03:41 51°17.696 2°51.694 4.7395 2.922265 30.197684 1.814375
2005-02-21 09:03:45 51°17.709 2°51.678 4.7413 2.923738 30.212892 1.881794
2005-02-21 09:03:50 51°17.724 2°51.659 4.7412 2.926054 30.236105 2.050341
2005-02-21 09:03:56 51°17.738 2°51.641 4.7416 2.927317 30.248911 2.050341
2005-02-21 09:04:01 51°17.753 2°51.622 4.7433 2.929632 30.273721 1.949212
2005-02-21 09:04:05 51°17.766 2°51.606 4.7398 2.931842 30.29573 1.881794
2005-02-21 09:04:10 51°17.78 2°51.588 4.7419 2.931842 30.29573 1.881794
2005-02-21 09:04:15 51°17.793 2°51.571 4.7373 2.934263 30.318535 1.982922
2005-02-21 09:04:20 51°17.808 2°51.552 4.7408 2.936368 30.339339 1.982922
2005-02-21 09:04:25 51°17.82 2°51.535 4.7357 2.936684 30.342138 1.645828
2005-02-21 09:04:30 51°17.834 2°51.516 4.7393 2.939105 30.368948 1.679537
2005-02-21 09:04:35 51°17.847 2°51.499 4.7432 2.940368 30.380947 1.612118
2005-02-21 09:04:41 51°17.863 2°51.479 4.7397 2.940368 30.380947 1.612118
2005-02-21 09:04:45 51°17.875 2°51.464 4.7409 2.94121 30.392157 1.578409
2005-02-21 09:04:50 51°17.889 2°51.447 4.7491 2.941947 30.400562 1.409862
2005-02-21 09:04:55 51°17.903 2°51.429 4.7509 2.942262 30.404967 1.342443
2005-02-21 09:05:00 51°17.918 2°51.413 4.7523 2.942683 30.410574 1.409862
2005-02-21 09:05:05 51°17.932 2°51.395 4.7563 2.943525 30.418573 1.443571
2005-02-21 09:05:11 51°17.947 2°51.377 4.7571 2.943315 30.414564 1.409862
2005-02-21 09:05:16 51°17.962 2°51.359 4.7604 2.943315 30.414564 1.409862
2005-02-21 09:05:21 51°17.976 2°51.341 4.7598 2.943946 30.422573 1.443571
2005-02-21 09:05:25 51°17.988 2°51.326 4.759 2.944578 30.426562 1.5447
2005-02-21 09:05:30 51°18.002 2°51.308 4.7563 2.94542 30.43456 1.612118
2005-02-21 09:05:35 51°18.017 2°51.29 4.7633 2.94563 30.435353 1.645828
2005-02-21 09:05:40 51°18.031 2°51.272 4.7617 2.94563 30.435353 1.645828
2005-02-21 09:05:45 51°18.044 2°51.255 4.7594 2.946894 30.445741 1.612118
2005-02-21 09:05:50 51°18.059 2°51.237 4.7595 2.946999 30.444529 1.645828
2005-02-21 09:05:55 51°18.073 2°51.219 4.7559 2.947841 30.451721 1.578409
2005-02-21 09:06:01 51°18.089 2°51.199 4.7567 2.948367 30.458527 1.612118
2005-02-21 09:06:05 51°18.101 2°51.183 4.757 2.948893 30.463725 1.578409
2005-02-21 09:06:10 51°18.115 2°51.164 4.7585 2.948893 30.463725 1.578409
2005-02-21 09:06:15 51°18.128 2°51.147 4.7674 2.949735 30.47172 1.5447
2005-02-21 09:06:21 51°18.144 2°51.126 4.7686 2.950051 30.476126 1.477281
2005-02-21 09:06:25 51°18.154 2°51.111 4.7751 2.950472 30.481733 1.409862
2005-02-21 09:06:30 51°18.17 2°51.09 4.77 2.950788 30.486945 1.477281
2005-02-21 09:06:35 51°18.184 2°51.072 4.7691 2.951209 30.491747 1.308734
2005-02-21 09:06:40 51°18.198 2°51.053 4.7715 2.951209 30.491747 1.308734
2005-02-21 09:06:46 51°18.214 2°51.033 4.7691 2.952577 30.505746 1.342443
2005-02-21 09:06:50 51°18.226 2°51.017 4.7697 2.953735 30.516536 1.308734
2005-02-21 09:06:55 51°18.24 2°51.001 4.7608 2.95563 30.533313 1.275024
2005-02-21 09:07:00 51°18.254 2°50.987 4.7566 2.956682 30.541288 1.342443
2005-02-21 09:07:05 51°18.268 2°50.975 4.7477 2.957945 30.556501 1.376153
2005-02-21 09:07:10 51°18.281 2°50.963 4.752 2.958682 30.564099 1.376153
2005-02-21 09:07:15 51°18.294 2°50.954 4.75 2.958682 30.564099 1.376153
2005-02-21 09:07:21 51°18.308 2°50.943 4.7451 2.959629 30.574904 1.342443
2005-02-21 09:07:25 51°18.317 2°50.937 4.7405 2.959524 30.574511 1.275024
2005-02-21 09:07:30 51°18.329 2°50.932 4.7371 2.959419 30.575731 1.207606
2005-02-21 09:07:36 51°18.34 2°50.928 4.7314 2.959208 30.576558 1.140187
2005-02-21 09:07:41 51°18.349 2°50.926 4.7298 2.959208 30.576558 1.140187
2005-02-21 09:07:45 51°18.355 2°50.926 4.7316 2.958788 30.578213 1.106477
2005-02-21 09:07:50 51°18.364 2°50.926 4.7341 2.958893 30.581029 1.039059
2005-02-21 09:07:55 51°18.371 2°50.927 4.7394 2.958472 30.57784 0.97164
2005-02-21 09:08:01 51°18.377 2°50.929 4.7415 2.957525 30.571066 0.904221
2005-02-21 09:08:05 51°18.383 2°50.932 4.7558 2.956682 30.566299 0.870512
2005-02-21 09:08:10 51°18.388 2°50.936 4.772 2.956682 30.566299 0.870512
2005-02-21 09:08:15 51°18.393 2°50.939 4.7795 2.956051 30.563127 0.836802
2005-02-21 09:08:21 51°18.397 2°50.943 4.7873 2.95563 30.560743 0.803093
2005-02-21 09:08:26 51°18.401 2°50.948 4.7964 2.956051 30.564743 0.769383
2005-02-21 09:08:30 51°18.404 2°50.951 4.7995 2.956788 30.570731 0.735674
2005-02-21 09:08:35 51°18.407 2°50.956 4.7986 2.957525 30.575104 0.803093
2005-02-21 09:08:41 51°18.411 2°50.961 4.8004 2.959945 30.59385 0.735674
2005-02-21 09:08:45 51°18.414 2°50.964 4.8029 2.959945 30.59385 0.735674
2005-02-21 09:08:50 51°18.417 2°50.968 4.8048 2.961945 30.604552 0.769383
2005-02-21 09:08:55 51°18.42 2°50.972 4.8058 2.96405 30.619681 0.803093
2005-02-21 09:09:01 51°18.423 2°50.978 4.8066 2.965734 30.63081 0.836802
2005-02-21 09:09:05 51°18.425 2°50.979 4.8083 2.966576 30.635565 0.904221
2005-02-21 09:09:10 51°18.427 2°50.984 4.8126 2.966576 30.635565 0.904221
2005-02-21 09:09:15 51°18.429 2°50.986 4.816 2.967418 30.641935 0.904221
2005-02-21 09:09:21 51°18.432 2°50.99 4.8192 2.967945 30.64632 0.870512
2005-02-21 09:09:25 51°18.434 2°50.991 4.8252 2.96826 30.648304 0.904221
2005-02-21 09:09:30 51°18.437 2°50.994 4.8275 2.968681 30.65068 0.97164
2005-02-21 09:09:35 51°18.44 2°50.996 4.8286 2.968681 30.648256 0.836802
2005-02-21 09:09:41 51°18.444 2°51 4.8288 2.969523 30.654623 0.769383
2005-02-21 09:09:45 51°18.448 2°51 4.8305 2.969523 30.654623 0.769383
2005-02-21 09:09:50 51°18.452 2°51.002 4.8353 2.969629 30.654207 0.769383
2005-02-21 09:09:56 51°18.458 2°51.003 4.8325 2.969944 30.654574 0.93793
2005-02-21 09:10:01 51°18.462 2°51.004 4.8258 2.970576 30.657732 0.803093
2005-02-21 09:10:05 51°18.464 2°51.005 4.8222 2.971102 30.65969 0.803093
2005-02-21 09:10:10 51°18.468 2°51.005 4.8193 2.971102 30.65969 0.803093
2005-02-21 09:10:14 51°18.469 2°51.005 4.8169 2.970681 30.653276 0.769383
2005-02-21 09:10:21 51°18.473 2°51.005 4.8167 2.971207 30.657658 0.803093
2005-02-21 09:10:25 51°18.474 2°51.005 4.8181 2.970997 30.652836 0.870512
2005-02-21 09:10:30 51°18.476 2°51.005 4.8113 2.971523 30.65641 0.836802
2005-02-21 09:10:35 51°18.476 2°51.005 4.8101 2.967629 30.615267 0.836802
2005-02-21 09:10:41 51°18.476 2°51.005 4.8081 2.969734 30.642481 0.836802
2005-02-21 09:10:45 51°18.477 2°51.004 4.8105 2.969734 30.642481 0.836802
2005-02-21 09:10:50 51°18.477 2°51.004 4.8086 2.969313 30.640106 0.803093
2005-02-21 09:10:56 51°18.477 2°51.003 4.8074 2.969629 30.646127 0.803093
2005-02-21 09:11:01 51°18.477 2°51.002 4.8101 2.97026 30.654941 0.769383
2005-02-21 09:11:05 51°18.477 2°51.002 4.8064 2.97005 30.655774 0.769383
2005-02-21 09:11:10 51°18.477 2°51.001 4.8087 2.97005 30.655774 0.769383
2005-02-21 09:11:15 51°18.477 2°51.001 4.8049 2.97005 30.65739 0.803093
2005-02-21 09:11:20 51°18.477 2°51 4.8024 2.969734 30.654599 0.803093
2005-02-21 09:11:25 51°18.476 2°50.999 4.8054 2.969629 30.654207 0.803093
2005-02-21 09:11:30 51°18.476 2°50.998 4.8036 2.969313 30.652223 0.870512
2005-02-21 09:11:35 51°18.476 2°50.997 4.8057 2.969102 30.649823 0.836802
2005-02-21 09:11:41 51°18.475 2°50.997 4.8032 2.969208 30.651831 0.870512
2005-02-21 09:11:45 51°18.475 2°50.997 4.8018 2.969208 30.651831 0.870512
2005-02-21 09:11:51 51°18.475 2°50.996 4.8044 2.969102 30.652248 0.870512
2005-02-21 09:11:55 51°18.474 2°50.995 4.8017 2.968997 30.651856 0.870512
2005-02-21 09:12:01 51°18.474 2°50.994 4.8016 2.968997 30.651856 0.904221
2005-02-21 09:12:05 51°18.474 2°50.994 4.8044 2.967945 30.640663 0.836802
2005-02-21 09:12:10 51°18.473 2°50.993 4.8013 2.967945 30.640663 0.836802
2005-02-21 09:12:15 51°18.472 2°50.993 4.8012 2.968471 30.646664 0.870512
2005-02-21 09:12:21 51°18.472 2°50.991 4.8019 2.968892 30.652272 0.93793
2005-02-21 09:12:25 51°18.472 2°50.991 4.8021 2.966892 30.629471 0.870512
2005-02-21 09:12:30 51°18.471 2°50.991 4.8033 2.968681 30.649872 0.904221
2005-02-21 09:12:36 51°18.471 2°50.99 4.8017 2.968787 30.652689 0.93793
2005-02-21 09:12:40 51°18.47 2°50.989 4.8048 2.968576 30.651097 0.870512
2005-02-21 09:12:45 51°18.47 2°50.988 4.8036 2.968576 30.651097 0.870512
2005-02-21 09:12:50 51°18.469 2°50.988 4.8048 2.968155 30.645488 0.904221
2005-02-21 09:12:55 51°18.469 2°50.987 4.8029 2.968681 30.65068 0.97164
2005-02-21 09:13:01 51°18.467 2°50.985 4.8018 2.967734 30.640687 1.005349
2005-02-21 09:13:05 51°18.467 2°50.985 4.8011 2.96826 30.648304 0.93793
2005-02-21 09:13:10 51°18.466 2°50.984 4.8007 2.96826 30.648304 0.93793
2005-02-21 09:13:15 51°18.465 2°50.983 4.802 2.968576 30.650288 0.93793
2005-02-21 09:13:20 51°18.465 2°50.983 4.8009 2.968155 30.645488 0.97164
2005-02-21 09:13:25 51°18.464 2°50.982 4.7993 2.968576 30.64948 0.93793
2005-02-21 09:13:30 51°18.463 2°50.981 4.8014 2.967945 30.642279 0.93793
2005-02-21 09:13:34 51°18.462 2°50.98 4.8025 2.96826 30.647496 0.97164
2005-02-21 09:13:41 51°18.461 2°50.98 4.8012 2.96826 30.647496 0.97164
2005-02-21 09:13:45 51°18.46 2°50.979 4.8001 2.968155 30.646296 0.97164
2005-02-21 09:13:50 51°18.459 2°50.978 4.7998 2.967313 30.636695 0.93793
2005-02-21 09:13:54 51°18.459 2°50.977 4.8 2.96826 30.647496 0.93793
2005-02-21 09:14:01 51°18.457 2°50.976 4.7998 2.968155 30.646296 0.97164
2005-02-21 09:14:05 51°18.456 2°50.976 4.7983 2.966787 30.630694 0.97164
2005-02-21 09:14:10 51°18.456 2°50.975 4.8006 2.967629 30.640295 0.93793
2005-02-21 09:14:16 51°18.455 2°50.975 4.8005 2.967629 30.640295 0.93793
2005-02-21 09:14:21 51°18.453 2°50.974 4.8013 2.96826 30.646688 0.93793
2005-02-21 09:14:25 51°18.453 2°50.973 4.7997 2.967734 30.642303 0.97164
2005-02-21 09:14:30 51°18.451 2°50.973 4.7991 2.967629 30.640295 0.904221
2005-02-21 09:14:35 51°18.45 2°50.972 4.7996 2.968155 30.647912 0.97164
2005-02-21 09:14:41 51°18.45 2°50.972 4.7978 2.968155 30.647912 0.97164
2005-02-21 09:14:45 51°18.449 2°50.971 4.7965 2.96826 30.649113 0.904221
2005-02-21 09:14:50 51°18.448 2°50.971 4.799 2.96805 30.645904 0.97164
2005-02-21 09:14:56 51°18.447 2°50.971 4.7982 2.967945 30.643896 0.93793
2005-02-21 09:15:01 51°18.445 2°50.97 4.7994 2.967629 30.641911 0.904221
2005-02-21 09:15:05 51°18.445 2°50.969 4.8001 2.967313 30.638311 0.97164
2005-02-21 09:15:10 51°18.444 2°50.969 4.7982 2.967313 30.638311 0.97164
2005-02-21 09:15:15 51°18.443 2°50.968 4.7985 2.966787 30.63231 0.93793
2005-02-21 09:15:21 51°18.442 2°50.968 4.7984 2.967103 30.63591 0.93793
2005-02-21 09:15:25 51°18.441 2°50.967 4.8012 2.967418 30.638703 1.072768
2005-02-21 09:15:30 51°18.44 2°50.967 4.7992 2.96805 30.646712 0.97164
2005-02-21 09:15:35 51°18.439 2°50.966 4.8004 2.967418 30.638703 0.904221
2005-02-21 09:15:41 51°18.438 2°50.965 4.7987 2.967418 30.638703 0.904221
2005-02-21 09:15:45 51°18.438 2°50.964 4.7986 2.967945 30.645512 1.005349
2005-02-21 09:15:50 51°18.438 2°50.963 4.7986 2.967208 30.63711 0.870512
2005-02-21 09:15:55 51°18.438 2°50.961 4.7975 2.967839 30.643504 0.97164
2005-02-21 09:16:00 51°18.438 2°50.959 4.7988 2.967103 30.63591 0.97164
2005-02-21 09:16:05 51°18.439 2°50.956 4.7992 2.967103 30.635102 0.904221
2005-02-21 09:16:10 51°18.44 2°50.953 4.801 2.967208 30.63711 0.97164
2005-02-21 09:16:15 51°18.442 2°50.949 4.8026 2.967208 30.63711 0.97164
2005-02-21 09:16:20 51°18.445 2°50.944 4.8048 2.967734 30.643111 0.904221
2005-02-21 09:16:25 51°18.449 2°50.938 4.8056 2.967839 30.643504 0.97164
2005-02-21 09:16:31 51°18.454 2°50.93 4.8026 2.966787 30.633926 1.005349
2005-02-21 09:16:36 51°18.459 2°50.922 4.802 2.967524 30.641519 0.97164
2005-02-21 09:16:40 51°18.464 2°50.916 4.8004 2.967524 30.641519 0.97164
2005-02-21 09:16:45 51°18.471 2°50.908 4.7987 2.967103 30.636718 0.93793
2005-02-21 09:16:50 51°18.478 2°50.901 4.8 2.967524 30.639903 0.93793
2005-02-21 09:16:56 51°18.487 2°50.89 4.7959 2.967313 30.635887 0.93793
2005-02-21 09:17:01 51°18.494 2°50.883 4.7959 2.967945 30.642279 0.836802
2005-02-21 09:17:05 51°18.502 2°50.875 4.789 2.966576 30.626679 0.870512
2005-02-21 09:17:10 51°18.511 2°50.867 4.7878 2.966576 30.626679 0.870512
2005-02-21 09:17:14 51°18.519 2°50.859 4.786 2.967103 30.632679 0.836802
2005-02-21 09:17:21 51°18.534 2°50.849 4.7993 2.967524 30.639095 0.769383
2005-02-21 09:17:25 51°18.545 2°50.844 4.7931 2.967313 30.635887 0.836802
2005-02-21 09:17:30 51°18.557 2°50.838 4.8004 2.967418 30.638703 0.735674
2005-02-21 09:17:35 51°18.571 2°50.833 4.8001 2.966471 30.630325 0.769383
2005-02-21 09:17:41 51°18.586 2°50.828 4.8036 2.965734 30.625962 0.803093
2005-02-21 09:17:46 51°18.599 2°50.824 4.804 2.965734 30.625962 0.803093
2005-02-21 09:17:50 51°18.613 2°50.819 4.8053 2.966682 30.638382 0.769383
2005-02-21 09:17:55 51°18.626 2°50.816 4.8072 2.963945 30.603943 0.870512
2005-02-21 09:18:01 51°18.64 2°50.812 4.807 2.964997 30.613523 0.836802
2005-02-21 09:18:05 51°18.651 2°50.811 4.8057 2.965839 30.621509 0.93793
2005-02-21 09:18:10 51°18.668 2°50.81 4.8045 2.966576 30.627486 1.005349
2005-02-21 09:18:15 51°18.681 2°50.811 4.8072 2.966576 30.627486 1.005349
2005-02-21 09:18:20 51°18.697 2°50.815 4.8078 2.966681 30.625456 1.072768
2005-02-21 09:18:25 51°18.711 2°50.82 4.8333 2.967945 30.63824 1.039059
2005-02-21 09:18:30 51°18.725 2°50.825 4.8244 2.96626 30.618234 1.106477
2005-02-21 09:18:35 51°18.74 2°50.832 4.8242 2.966471 30.622249 1.140187
2005-02-21 09:18:41 51°18.757 2°50.84 4.8253 2.966471 30.622249 1.140187
2005-02-21 09:18:45 51°18.768 2°50.846 4.8176 2.966576 30.627486 1.106477
2005-02-21 09:18:50 51°18.783 2°50.853 4.8167 2.964997 30.610293 1.173896
2005-02-21 09:18:55 51°18.797 2°50.862 4.8118 2.966892 30.630279 1.106477
2005-02-21 09:19:01 51°18.813 2°50.871 4.8129 2.966787 30.61939 1.173896
2005-02-21 09:19:05 51°18.825 2°50.878 4.812 2.967313 30.624581 1.140187
2005-02-21 09:19:10 51°18.841 2°50.888 4.814 2.967313 30.624581 1.140187
2005-02-21 09:19:15 51°18.855 2°50.897 4.8172 2.967208 30.622574 1.207606
2005-02-21 09:19:21 51°18.872 2°50.91 4.8192 2.966997 30.621789 1.241315
2005-02-21 09:19:25 51°18.883 2°50.921 4.8169 2.966997 30.624211 1.207606
2005-02-21 09:19:30 51°18.897 2°50.936 4.8177 2.967629 30.635448 1.173896
2005-02-21 09:19:35 51°18.908 2°50.95 4.819 2.966471 30.621441 1.173896
2005-02-21 09:19:41 51°18.922 2°50.971 4.8173 2.967839 30.637848 1.207606
2005-02-21 09:19:45 51°18.932 2°50.987 4.8183 2.967839 30.637848 1.207606
2005-02-21 09:19:50 51°18.942 2°51.006 4.8165 2.967524 30.63344 1.173896
2005-02-21 09:19:55 51°18.951 2°51.027 4.8196 2.96805 30.637016 1.140187
2005-02-21 09:20:01 51°18.961 2°51.05 4.8186 2.968155 30.639024 1.207606
2005-02-21 09:20:05 51°18.969 2°51.071 4.8184 2.967839 30.635424 1.173896
2005-02-21 09:20:10 51°18.977 2°51.094 4.8118 2.967208 30.62661 1.106477
2005-02-21 09:20:15 51°18.985 2°51.116 4.8076 2.967208 30.62661 1.106477
2005-02-21 09:20:21 51°18.993 2°51.14 4.8114 2.967839 30.634617 1.173896
2005-02-21 09:20:25 51°19.001 2°51.164 4.8178 2.967945 30.635009 1.106477
2005-02-21 09:20:30 51°19.008 2°51.187 4.817 2.967418 30.62901 1.072768
2005-02-21 09:20:34 51°19.014 2°51.206 4.812 2.966892 30.624626 1.106477
2005-02-21 09:20:40 51°19.023 2°51.233 4.8106 2.966892 30.624626 1.106477
2005-02-21 09:20:45 51°19.03 2°51.257 4.8149 2.966681 30.623033 1.140187
2005-02-21 09:20:51 51°19.038 2°51.282 4.8174 2.967208 30.633071 1.140187
2005-02-21 09:20:56 51°19.047 2°51.305 4.8081 2.967629 30.639487 1.173896
2005-02-21 09:21:01 51°19.054 2°51.329 4.8127 2.966997 30.629863 1.173896
2005-02-21 09:21:05 51°19.061 2°51.351 4.8129 2.966682 30.626263 1.207606
2005-02-21 09:21:10 51°19.069 2°51.374 4.8089 2.967839 30.641079 1.140187
2005-02-21 09:21:15 51°19.076 2°51.396 4.8165 2.967839 30.641079 1.140187
2005-02-21 09:21:21 51°19.084 2°51.422 4.8127 2.967839 30.641887 1.140187
2005-02-21 09:21:25 51°19.092 2°51.446 4.8116 2.967418 30.637895 1.140187
2005-02-21 09:21:30 51°19.099 2°51.47 4.8123 2.967839 30.642695 1.173896
2005-02-21 09:21:34 51°19.105 2°51.489 4.8062 2.967945 30.643087 1.578409
2005-02-21 09:21:41 51°19.115 2°51.519 4.8062 2.968576 30.651905 1.578409
2005-02-21 09:21:45 51°19.122 2°51.541 4.8103 2.968576 30.651905 1.578409
2005-02-21 09:21:50 51°19.13 2°51.565 4.8094 2.96826 30.646688 1.578409
2005-02-21 09:21:56 51°19.138 2°51.588 4.8092 2.968787 30.651072 1.578409
2005-02-21 09:22:01 51°19.147 2°51.614 4.8112 2.968471 30.649897 1.5447
2005-02-21 09:22:05 51°19.153 2°51.637 4.8117 2.968892 30.655506 1.578409
2005-02-21 09:22:10 51°19.16 2°51.662 4.8157 2.968892 30.655506 1.578409
2005-02-21 09:22:15 51°19.167 2°51.687 4.8149 2.968787 30.656731 1.51099
2005-02-21 09:22:21 51°19.173 2°51.715 4.8132 2.969103 30.661141 1.51099
2005-02-21 09:22:25 51°19.178 2°51.737 4.8232 2.968892 30.65874 1.578409
2005-02-21 09:22:30 51°19.183 2°51.763 4.8209 2.969103 30.661141 1.51099
2005-02-21 09:22:35 51°19.188 2°51.787 4.8242 2.968787 30.654306 1.51099
2005-02-21 09:22:40 51°19.194 2°51.815 4.817 2.968787 30.654306 1.51099
2005-02-21 09:22:45 51°19.198 2°51.84 4.8197 2.934052 30.256975 1.51099
2005-02-21 09:22:51 51°19.205 2°51.869 4.8267 2.918369 30.076946 1.51099
2005-02-21 09:22:56 51°19.209 2°51.894 4.8329 2.934684 30.26177 1.5447
2005-02-21 09:23:00 51°19.215 2°51.918 4.8296 2.931421 30.22065 1.5447
2005-02-21 09:23:05 51°19.22 2°51.944 4.8285 2.942262 30.342443 1.5447
2005-02-21 09:23:10 51°19.226 2°51.969 4.8291 2.960576 30.553454 1.5447
2005-02-21 09:23:15 51°19.23 2°51.993 4.8242 2.960576 30.553454 1.5447
2005-02-21 09:23:20 51°19.235 2°52.02 4.8242 2.958366 30.529071 1.578409
2005-02-21 09:23:25 51°19.24 2°52.046 4.8244 2.962155 30.569834 1.612118
2005-02-21 09:23:30 51°19.245 2°52.072 4.8265 2.963418 30.580198 1.645828
2005-02-21 09:23:36 51°19.25 2°52.097 4.8215 2.964681 30.592172 1.578409
2005-02-21 09:23:41 51°19.254 2°52.124 4.8248 2.963524 30.578979 1.612118
2005-02-21 09:23:45 51°19.259 2°52.147 4.8253 2.963524 30.578979 1.612118
2005-02-21 09:23:50 51°19.263 2°52.173 4.8254 2.966997 30.61856 1.612118
2005-02-21 09:23:56 51°19.269 2°52.2 4.8269 2.970155 30.656974 1.612118
2005-02-21 09:24:01 51°19.274 2°52.226 4.8241 2.969629 30.652591 1.645828
2005-02-21 09:24:05 51°19.279 2°52.248 4.8287 2.971839 30.678598 1.578409
2005-02-21 09:24:10 51°19.284 2°52.274 4.8259 2.971839 30.678598 1.578409
2005-02-21 09:24:14 51°19.288 2°52.294 4.8287 2.964997 30.601416 1.578409
2005-02-21 09:24:21 51°19.294 2°52.327 4.8247 2.972471 30.686607 1.612118
2005-02-21 09:24:26 51°19.299 2°52.351 4.8297 2.962892 30.577425 1.612118
2005-02-21 09:24:30 51°19.303 2°52.375 4.8331 2.964997 30.599803 1.5447
2005-02-21 09:24:36 51°19.308 2°52.401 4.828 2.963208 30.579411 1.578409
2005-02-21 09:24:41 51°19.312 2°52.428 4.8225 2.967839 30.630579 1.5447
2005-02-21 09:24:45 51°19.317 2°52.452 4.8283 2.967839 30.630579 1.5447
2005-02-21 09:24:51 51°19.322 2°52.479 4.8214 2.973208 30.690962 1.578409
2005-02-21 09:24:56 51°19.326 2°52.502 4.8206 2.967734 30.627765 1.5447
2005-02-21 09:25:01 51°19.332 2°52.53 4.8203 2.964787 30.596597 1.51099
2005-02-21 09:25:05 51°19.335 2°52.551 4.816 2.972997 30.685327 1.5447
2005-02-21 09:25:10 51°19.34 2°52.579 4.8094 2.967629 30.628987 1.409862
2005-02-21 09:25:16 51°19.345 2°52.604 4.8072 2.967629 30.628987 1.409862
2005-02-21 09:25:21 51°19.351 2°52.631 4.8053 2.969523 30.651391 1.443571
2005-02-21 09:25:25 51°19.352 2°52.653 4.8054 2.971523 30.674189 1.443571
2005-02-21 09:25:30 51°19.358 2°52.681 4.8085 2.962787 30.578644 1.342443
2005-02-21 09:25:36 51°19.362 2°52.706 4.8114 2.96405 30.594653 1.342443
2005-02-21 09:25:41 51°19.367 2°52.734 4.8098 2.96405 30.594653 1.342443
2005-02-21 09:25:45 51°19.37 2°52.755 4.806 2.966787 30.629079 1.342443
2005-02-21 09:25:50 51°19.376 2°52.783 4.8078 2.967734 30.640687 1.275024
2005-02-21 09:25:56 51°19.38 2°52.812 4.813 2.967839 30.64512 1.308734
2005-02-21 09:26:01 51°19.385 2°52.836 4.8129 2.966997 30.637134 1.241315
2005-02-21 09:26:05 51°19.389 2°52.859 4.8129 2.968366 30.652738 1.241315
2005-02-21 09:26:10 51°19.394 2°52.884 4.8144 2.968366 30.652738 1.241315
2005-02-21 09:26:14 51°19.397 2°52.905 4.8185 2.958998 30.545932 1.241315
2005-02-21 09:26:21 51°19.404 2°52.939 4.8181 2.965313 30.618738 1.241315
2005-02-21 09:26:25 51°19.408 2°52.961 4.8193 2.962998 30.592335 1.241315
2005-02-21 09:26:30 51°19.413 2°52.988 4.8201 2.966787 30.633118 1.207606
2005-02-21 09:26:36 51°19.417 2°53.013 4.8235 2.970155 30.670718 1.241315
2005-02-21 09:26:41 51°19.422 2°53.04 4.8227 2.962997 30.588301 1.207606
2005-02-21 09:26:45 51°19.427 2°53.064 4.8268 2.962997 30.588301 1.207606
2005-02-21 09:26:50 51°19.432 2°53.089 4.8212 2.965734 30.618693 1.241315
2005-02-21 09:26:56 51°19.437 2°53.117 4.8209 2.970155 30.667483 1.241315
2005-02-21 09:27:00 51°19.441 2°53.141 4.8211 2.959945 30.549479 1.275024
2005-02-21 09:27:05 51°19.446 2°53.166 4.828 2.970997 30.67385 1.241315
2005-02-21 09:27:10 51°19.45 2°53.192 4.8258 2.966471 30.620634 1.241315
2005-02-21 09:27:15 51°19.455 2°53.216 4.8225 2.966471 30.620634 1.241315
2005-02-21 09:27:20 51°19.459 2°53.244 4.8226 2.959419 30.53865 1.207606
2005-02-21 09:27:25 51°19.463 2°53.269 4.8235 2.971839 30.681833 1.241315
2005-02-21 09:27:30 51°19.468 2°53.295 4.8245 2.97205 30.685852 1.275024
2005-02-21 09:27:36 51°19.473 2°53.321 4.8246 2.970787 30.669832 1.241315
2005-02-21 09:27:41 51°19.478 2°53.349 4.8274 2.970787 30.669832 1.241315
2005-02-21 09:27:45 51°19.482 2°53.372 4.8242 2.97205 30.682615 1.241315
2005-02-21 09:27:51 51°19.488 2°53.402 4.8257 2.97005 30.659815 1.275024
2005-02-21 09:27:56 51°19.492 2°53.426 4.8226 2.967734 30.633417 1.241315
2005-02-21 09:28:00 51°19.496 2°53.45 4.822 2.97205 30.680998 1.241315
2005-02-21 09:28:05 51°19.501 2°53.476 4.8218 2.961945 30.564212 1.241315
2005-02-21 09:28:10 51°19.506 2°53.502 4.8225 2.966471 30.617405 1.275024
2005-02-21 09:28:16 51°19.511 2°53.528 4.8232 2.966471 30.617405 1.275024
2005-02-21 09:28:21 51°19.516 2°53.556 4.821 2.970681 30.665398 1.275024
2005-02-21 09:28:25 51°19.52 2°53.579 4.8228 2.964155 30.592626 1.241315
2005-02-21 09:28:30 51°19.525 2°53.604 4.819 2.963313 30.582223 1.241315
2005-02-21 09:28:36 51°19.53 2°53.63 4.8263 2.968576 30.643016 1.241315
2005-02-21 09:28:41 51°19.535 2°53.658 4.819 2.965945 30.613021 1.308734
2005-02-21 09:28:45 51°19.538 2°53.679 4.8169 2.965945 30.613021 1.308734
2005-02-21 09:28:50 51°19.544 2°53.707 4.8133 2.967734 30.633417 1.308734
2005-02-21 09:28:56 51°19.548 2°53.733 4.8175 2.963208 30.581024 1.275024
2005-02-21 09:29:01 51°19.554 2°53.761 4.8182 2.96805 30.636209 1.241315
2005-02-21 09:29:05 51°19.558 2°53.784 4.8165 2.969102 30.649015 1.275024
2005-02-21 09:29:10 51°19.563 2°53.809 4.8163 2.968471 30.64424 1.275024
2005-02-21 09:29:16 51°19.567 2°53.837 4.8147 2.968471 30.64424 1.275024
2005-02-21 09:29:21 51°19.572 2°53.863 4.8127 2.965208 30.607043 1.275024
2005-02-21 09:29:25 51°19.576 2°53.886 4.8103 2.967734 30.639071 1.275024
2005-02-21 09:29:30 51°19.581 2°53.913 4.8122 2.970366 30.669883 1.275024
2005-02-21 09:29:34 51°19.584 2°53.933 4.8078 2.966892 30.629471 1.275024
2005-02-21 09:29:40 51°19.588 2°53.964 4.806 2.966892 30.629471 1.275024
2005-02-21 09:29:45 51°19.592 2°53.988 4.8012 2.968997 30.653472 1.275024
2005-02-21 09:29:50 51°19.596 2°54.015 4.8039 2.964261 30.60028 1.308734
2005-02-21 09:29:55 51°19.601 2°54.039 4.8074 2.967313 30.636695 1.308734
2005-02-21 09:30:00 51°19.604 2°54.066 4.8103 2.957419 30.526326 1.342443
2005-02-21 09:30:05 51°19.609 2°54.092 4.7963 2.964366 30.605515 1.409862
2005-02-21 09:30:10 51°19.612 2°54.119 4.7971 2.966682 30.635149 1.275024
2005-02-21 09:30:15 51°19.616 2°54.143 4.8002 2.966682 30.635149 1.275024
2005-02-21 09:30:21 51°19.621 2°54.173 4.7964 2.961734 30.581161 1.308734
2005-02-21 09:30:25 51°19.625 2°54.196 4.8008 2.956472 30.521164 1.342443
2005-02-21 09:30:30 51°19.628 2°54.222 4.8044 2.959735 30.557555 1.275024
2005-02-21 09:30:35 51°19.633 2°54.245 4.8005 2.956261 30.520375 1.275024
2005-02-21 09:30:40 51°19.637 2°54.274 4.8018 2.959524 30.559185 1.342443
2005-02-21 09:30:45 51°19.641 2°54.3 4.8021 2.959524 30.559185 1.342443
2005-02-21 09:30:50 51°19.645 2°54.326 4.8091 2.960366 30.570399 1.308734
2005-02-21 09:30:55 51°19.649 2°54.35 4.8059 2.953524 30.493203 1.342443
2005-02-21 09:31:01 51°19.655 2°54.381 4.8058 2.957524 30.538801 1.342443
2005-02-21 09:31:05 51°19.658 2°54.404 4.8031 2.959629 30.560385 1.342443
2005-02-21 09:31:11 51°19.663 2°54.433 4.8051 2.959735 30.562392 1.342443
2005-02-21 09:31:15 51°19.666 2°54.453 4.8065 2.959735 30.562392 1.342443
2005-02-21 09:31:21 51°19.671 2°54.485 4.8093 2.950367 30.4548 1.409862
2005-02-21 09:31:25 51°19.674 2°54.508 4.8041 2.954787 30.502773 1.409862
2005-02-21 09:31:30 51°19.678 2°54.535 4.8026 2.955208 30.507572 1.342443
2005-02-21 09:31:36 51°19.682 2°54.56 4.8025 2.949314 30.439593 1.376153
2005-02-21 09:31:41 51°19.686 2°54.588 4.8014 2.959208 30.553167 1.376153
2005-02-21 09:31:45 51°19.689 2°54.608 4.7944 2.959208 30.553167 1.376153
2005-02-21 09:31:50 51°19.693 2°54.638 4.791 2.962682 30.59277 1.376153
2005-02-21 09:31:56 51°19.697 2°54.663 4.7911 2.960471 30.565148 1.342443
2005-02-21 09:32:00 51°19.701 2°54.689 4.7958 2.958892 30.550373 1.342443
2005-02-21 09:32:05 51°19.705 2°54.715 4.7921 2.957524 30.535579 1.342443
2005-02-21 09:32:10 51°19.709 2°54.741 4.7937 2.954051 30.497593 1.308734
2005-02-21 09:32:15 51°19.713 2°54.764 4.7904 2.954051 30.497593 1.308734
2005-02-21 09:32:21 51°19.718 2°54.794 4.7878 2.946472 30.412828 1.308734
2005-02-21 09:32:25 51°19.72 2°54.818 4.7844 2.956366 30.528823 1.308734
2005-02-21 09:32:30 51°19.725 2°54.844 4.7827 2.948051 30.435638 1.275024
2005-02-21 09:32:35 51°19.729 2°54.87 4.7795 2.958893 30.560853 1.241315
2005-02-21 09:32:41 51°19.734 2°54.897 4.7756 2.949209 30.450442 1.275024
2005-02-21 09:32:45 51°19.737 2°54.921 4.7781 2.949209 30.450442 1.275024
2005-02-21 09:32:50 51°19.742 2°54.946 4.7755 2.949419 30.452842 1.241315
2005-02-21 09:32:55 51°19.745 2°54.972 4.7729 2.956366 30.536074 1.207606
2005-02-21 09:33:01 51°19.75 2°55.001 4.7696 2.955209 30.525287 1.207606
2005-02-21 09:33:05 51°19.753 2°55.024 4.768 2.945104 30.411679 1.207606
2005-02-21 09:33:10 51°19.758 2°55.049 4.7664 2.945104 30.411679 1.207606
2005-02-21 09:33:15 51°19.761 2°55.075 4.7656 2.95563 30.533313 1.140187
2005-02-21 09:33:20 51°19.765 2°55.101 4.7683 2.943736 30.400093 1.173896
2005-02-21 09:33:25 51°19.769 2°55.124 4.7633 2.953419 30.512934 1.140187
2005-02-21 09:33:30 51°19.773 2°55.153 4.7604 2.94963 30.471324 1.173896
2005-02-21 09:33:36 51°19.778 2°55.181 4.7617 2.950051 30.47854 1.106477
2005-02-21 09:33:41 51°19.781 2°55.207 4.7607 2.949841 30.477749 1.106477
2005-02-21 09:33:45 51°19.786 2°55.231 4.7607 2.949841 30.477749 1.106477
2005-02-21 09:33:50 51°19.789 2°55.257 4.7643 2.948893 30.469357 1.072768
2005-02-21 09:33:54 51°19.793 2°55.277 4.7657 2.943736 30.411333 1.039059
2005-02-21 09:34:00 51°19.797 2°55.309 4.7596 2.945525 30.431741 1.072768
2005-02-21 09:34:05 51°19.802 2°55.335 4.7639 2.944683 30.425352 1.106477
2005-02-21 09:34:10 51°19.806 2°55.36 4.7648 2.942578 30.401341 1.106477
2005-02-21 09:34:15 51°19.81 2°55.387 4.7644 2.942578 30.401341 1.106477
2005-02-21 09:34:20 51°19.813 2°55.413 4.7648 2.946367 30.445366 1.072768
2005-02-21 09:34:25 51°19.818 2°55.439 4.7699 2.939631 30.368532 1.072768
2005-02-21 09:34:31 51°19.823 2°55.469 4.7724 2.944894 30.428557 1.140187
2005-02-21 09:34:35 51°19.826 2°55.489 4.7696 2.946578 30.446964 1.106477
2005-02-21 09:34:41 51°19.831 2°55.52 4.7747 2.942789 30.402136 1.173896
2005-02-21 09:34:45 51°19.834 2°55.541 4.7726 2.942789 30.402136 1.173896
2005-02-21 09:34:50 51°19.839 2°55.569 4.7749 2.946788 30.446148 1.072768
2005-02-21 09:34:54 51°19.841 2°55.59 4.7761 2.944788 30.423338 1.106477
2005-02-21 09:35:01 51°19.846 2°55.625 4.7777 2.941947 30.389322 1.106477
2005-02-21 09:35:05 51°19.849 2°55.645 4.7715 2.934894 30.308119 1.106477
2005-02-21 09:35:10 51°19.855 2°55.674 4.7735 2.934894 30.308119 1.106477
2005-02-21 09:35:14 51°19.857 2°55.695 4.7763 2.943631 30.407724 1.140187
2005-02-21 09:35:21 51°19.863 2°55.729 4.7735 2.946999 30.444529 1.173896
2005-02-21 09:35:25 51°19.866 2°55.753 4.7721 2.948788 30.463329 1.173896
2005-02-21 09:35:30 51°19.87 2°55.779 4.7616 2.950683 30.483329 1.173896
2005-02-21 09:35:34 51°19.874 2°55.799 4.7675 2.948578 30.458515 1.207606
2005-02-21 09:35:41 51°19.878 2°55.833 4.7662 2.944578 30.414511 1.173896
2005-02-21 09:35:45 51°19.881 2°55.854 4.7594 2.944578 30.414511 1.173896
2005-02-21 09:35:50 51°19.887 2°55.883 4.7623 2.947314 30.444111 1.207606
2005-02-21 09:35:55 51°19.89 2°55.909 4.759 2.946051 30.432118 1.173896
2005-02-21 09:36:01 51°19.895 2°55.938 4.7629 2.942157 30.390117 1.140187
2005-02-21 09:36:05 51°19.898 2°55.958 4.7631 2.94563 30.432138 1.173896
2005-02-21 09:36:11 51°19.903 2°55.99 4.7567 2.942683 30.400935 1.173896
2005-02-21 09:36:14 51°19.905 2°56.008 4.7532 2.942683 30.400935 1.173896
2005-02-21 09:36:21 51°19.91 2°56.042 4.7527 2.940999 30.382532 1.140187
2005-02-21 09:36:25 51°19.915 2°56.064 4.7535 2.940684 30.379733 1.106477
2005-02-21 09:36:30 51°19.919 2°56.091 4.7496 2.945315 30.434967 1.039059
2005-02-21 09:36:35 51°19.922 2°56.117 4.7538 2.93921 30.366137 1.072768
2005-02-21 09:36:41 51°19.926 2°56.145 4.7484 2.936684 30.338131 1.072768
2005-02-21 09:36:45 51°19.929 2°56.166 4.7432 2.936684 30.338131 1.072768
2005-02-21 09:36:50 51°19.935 2°56.195 4.7468 2.936368 30.336133 1.072768
2005-02-21 09:36:54 51°19.938 2°56.216 4.7484 2.93921 30.370148 1.072768
2005-02-21 09:37:01 51°19.944 2°56.249 4.7493 2.938263 30.360948 1.072768
2005-02-21 09:37:05 51°19.948 2°56.273 4.754 2.94142 30.397771 1.005349
2005-02-21 09:37:10 51°19.951 2°56.3 4.7448 2.941526 30.400578 1.072768
2005-02-21 09:37:15 51°19.955 2°56.324 4.748 2.941526 30.400578 1.072768
2005-02-21 09:37:21 51°19.96 2°56.355 4.7459 2.931842 30.291727 1.039059
2005-02-21 09:37:25 51°19.964 2°56.378 4.7465 2.933421 30.310534 1.005349
2005-02-21 09:37:30 51°19.968 2°56.404 4.7437 2.936894 30.348548 1.039059
2005-02-21 09:37:36 51°19.973 2°56.433 4.7473 2.934158 30.317335 1.039059
2005-02-21 09:37:41 51°19.977 2°56.458 4.7501 2.937316 30.354955 1.039059
2005-02-21 09:37:45 51°19.98 2°56.482 4.7482 2.937316 30.354955 1.039059
2005-02-21 09:37:50 51°19.985 2°56.509 4.746 2.932895 30.304531 1.039059
2005-02-21 09:37:55 51°19.989 2°56.535 4.7462 2.928158 30.250519 1.106477
2005-02-21 09:38:01 51°19.994 2°56.563 4.7449 2.934474 30.32334 1.005349
2005-02-21 09:38:05 51°19.997 2°56.587 4.749 2.931421 30.290928 1.072768
2005-02-21 09:38:10 51°20.001 2°56.613 4.7498 2.929211 30.26332 1.106477
2005-02-21 09:38:15 51°20.006 2°56.64 4.7511 2.929211 30.26332 1.106477
2005-02-21 09:38:21 51°20.01 2°56.668 4.7443 2.922054 30.181719 1.072768
2005-02-21 09:38:25 51°20.014 2°56.689 4.7464 2.93721 30.355359 1.039059
2005-02-21 09:38:31 51°20.018 2°56.723 4.7489 2.935737 30.339351 1.072768
2005-02-21 09:38:34 51°20.021 2°56.739 4.7501 2.936579 30.348956 1.072768
2005-02-21 09:38:41 51°20.026 2°56.774 4.7467 2.935421 30.334145 1.039059
2005-02-21 09:38:45 51°20.03 2°56.797 4.7502 2.935421 30.334145 1.039059
2005-02-21 09:38:50 51°20.034 2°56.824 4.7515 2.936684 30.348553 1.039059
2005-02-21 09:38:55 51°20.039 2°56.849 4.7549 2.937737 30.362165 1.039059
2005-02-21 09:39:00 51°20.042 2°56.876 4.7511 2.93521 30.332546 1.072768
2005-02-21 09:39:05 51°20.047 2°56.902 4.7527 2.932895 30.306133 1.072768
2005-02-21 09:39:10 51°20.051 2°56.928 4.7558 2.930579 30.278123 1.072768
2005-02-21 09:39:15 51°20.054 2°56.952 4.7578 2.930579 30.278123 1.072768
2005-02-21 09:39:21 51°20.059 2°56.983 4.7561 2.936894 30.350152 1.106477
2005-02-21 09:39:25 51°20.062 2°57.007 4.7581 2.929316 30.26372 1.106477
2005-02-21 09:39:31 51°20.067 2°57.038 4.7623 2.926685 30.231321 1.106477
2005-02-21 09:39:35 51°20.07 2°57.06 4.7631 2.937 30.348145 1.140187
2005-02-21 09:39:41 51°20.077 2°57.092 4.7611 2.937105 30.349346 1.140187
2005-02-21 09:39:45 51°20.079 2°57.114 4.7584 2.937105 30.349346 1.140187
2005-02-21 09:39:50 51°20.084 2°57.146 4.7576 2.930158 30.268523 1.140187
2005-02-21 09:39:55 51°20.089 2°57.171 4.7566 2.935316 30.326533 1.140187
2005-02-21 09:40:01 51°20.094 2°57.206 4.7585 2.934579 30.316529 1.072768
2005-02-21 09:40:05 51°20.098 2°57.233 4.7574 2.93279 30.294525 1.106477
2005-02-21 09:40:10 51°20.103 2°57.262 4.7594 2.93279 30.294525 1.106477
2005-02-21 09:40:16 51°20.107 2°57.294 4.7603 2.937631 30.348132 1.140187
2005-02-21 09:40:21 51°20.113 2°57.324 4.7608 2.938999 30.363736 1.106477
2005-02-21 09:40:25 51°20.116 2°57.351 4.7594 2.93521 30.322128 1.140187
2005-02-21 09:40:30 51°20.121 2°57.38 4.7671 2.929 30.252925 1.106477
2005-02-21 09:40:35 51°20.124 2°57.408 4.7597 2.937947 30.355742 1.106477
2005-02-21 09:40:41 51°20.13 2°57.441 4.7633 2.939631 30.373346 1.140187
2005-02-21 09:40:45 51°20.133 2°57.469 4.7687 2.939631 30.373346 1.140187
2005-02-21 09:40:50 51°20.139 2°57.498 4.7669 2.935526 30.324928 1.106477
2005-02-21 09:40:54 51°20.142 2°57.522 4.7654 2.930263 30.264926 1.140187
2005-02-21 09:41:01 51°20.149 2°57.559 4.7643 2.935737 30.325726 1.173896
2005-02-21 09:41:05 51°20.153 2°57.587 4.7671 2.938894 30.362536 1.173896
2005-02-21 09:41:10 51°20.158 2°57.616 4.7663 2.937947 30.350931 1.173896
2005-02-21 09:41:15 51°20.162 2°57.646 4.7684 2.937947 30.350931 1.173896
2005-02-21 09:41:21 51°20.167 2°57.678 4.7686 2.937421 30.343327 1.140187
2005-02-21 09:41:25 51°20.172 2°57.705 4.7705 2.921949 30.165373 1.207606
2005-02-21 09:41:30 51°20.177 2°57.735 4.7734 2.929106 30.246134 1.140187
2005-02-21 09:41:35 51°20.181 2°57.765 4.776 2.931947 30.279325 1.173896
2005-02-21 09:41:41 51°20.188 2°57.797 4.7761 2.933947 30.302123 1.173896
2005-02-21 09:41:45 51°20.191 2°57.824 4.7787 2.933947 30.302123 1.173896
2005-02-21 09:41:50 51°20.196 2°57.854 4.7771 2.930263 30.258531 1.173896
2005-02-21 09:41:55 51°20.201 2°57.884 4.7777 2.937421 30.33932 1.173896
2005-02-21 09:42:01 51°20.205 2°57.917 4.7787 2.931526 30.272128 1.173896
2005-02-21 09:42:05 51°20.21 2°57.944 4.7757 2.934789 30.306119 1.173896
2005-02-21 09:42:10 51°20.214 2°57.974 4.7727 2.934789 30.306119 1.173896
2005-02-21 09:42:15 51°20.22 2°58.004 4.772 2.93721 30.332914 1.140187
2005-02-21 09:42:21 51°20.224 2°58.037 4.7763 2.932158 30.27293 1.207606
2005-02-21 09:42:25 51°20.229 2°58.06 4.7727 2.929842 30.246543 1.241315
2005-02-21 09:42:30 51°20.233 2°58.094 4.7708 2.939841 30.358904 1.207606
2005-02-21 09:42:35 51°20.238 2°58.124 4.7714 2.93321 30.283326 1.173896
2005-02-21 09:42:41 51°20.243 2°58.157 4.7773 2.932789 30.279327 1.173896
2005-02-21 09:42:45 51°20.248 2°58.184 4.7785 2.932789 30.279327 1.173896
2005-02-21 09:42:50 51°20.253 2°58.214 4.7754 2.937631 30.336112 1.241315
2005-02-21 09:42:54 51°20.256 2°58.238 4.7796 2.933316 30.285325 1.173896
2005-02-21 09:43:01 51°20.262 2°58.277 4.7749 2.930579 30.255738 1.207606